QFA6041 EDHI-VTBS
Flight info
| Callsign | QFA6041 |
|---|---|
| Flight time | 11h 9m |
| Altitude | 35000 |
| Route | AMLUH1W AMLUH M852 DENIX DCT ZUCKA DCT HDO DCT ODLIV DCT ODNEM DCT ERGOM DCT BUDOP DCT DINRO DCT UDROS UM859 KARDE UL851 TBN UM11 REBLO P130 BODKA/N0441F370 P130 MAMED B449 DOLOS B475 NINOP A909 LEMOD N644 DI A466 SULOM M890 LKN/N0442F390 R460 BBN P646 TARED WILLA1C |
| Aircraft | A21N/M-SDE2E3FGHIRWXY/LB1 |
Departure
| Time | 2026-04-23 00:19 |
|---|---|
| Airport | Hamburg-Finkenwerder Airport (EDHI) |
Arrival
| Time | 2026-04-23 11:28 |
|---|---|
| Airport | Suvarnabhumi Airport (VTBS) |
| Time | Latitude | Longitude | Altitude | Speed | Heading |
|---|---|---|---|---|---|
| 2026-04-22 23:31 | 53.53133 | 9.83482 | 27 ft | 0 kts | 213° |
| 2026-04-23 00:10 | 53.53148 | 9.83502 | 27 ft | 4 kts | 235° |
| 2026-04-23 00:10 | 53.53154 | 9.83532 | 27 ft | 4 kts | 275° |
| 2026-04-23 00:10 | 53.53150 | 9.83560 | 27 ft | 1 kts | 294° |
| 2026-04-23 00:10 | 53.53149 | 9.83565 | 27 ft | 0 kts | 294° |
| 2026-04-23 00:13 | 53.53151 | 9.83558 | 27 ft | 2 kts | 294° |
| 2026-04-23 00:13 | 53.53162 | 9.83520 | 27 ft | 5 kts | 302° |
| 2026-04-23 00:13 | 53.53202 | 9.83448 | 27 ft | 8 kts | 337° |
| 2026-04-23 00:14 | 53.53260 | 9.83429 | 27 ft | 9 kts | 352° |
| 2026-04-23 00:14 | 53.53305 | 9.83418 | 27 ft | 10 kts | 351° |
| 2026-04-23 00:14 | 53.53379 | 9.83390 | 27 ft | 12 kts | 344° |
| 2026-04-23 00:14 | 53.53458 | 9.83390 | 27 ft | 13 kts | 51° |
| 2026-04-23 00:15 | 53.53533 | 9.83553 | 28 ft | 26 kts | 53° |
| 2026-04-23 00:15 | 53.53650 | 9.83802 | 25 ft | 28 kts | 52° |
| 2026-04-23 00:15 | 53.53773 | 9.84063 | 28 ft | 29 kts | 51° |
| 2026-04-23 00:15 | 53.53902 | 9.84332 | 29 ft | 30 kts | 52° |
| 2026-04-23 00:16 | 53.54034 | 9.84617 | 28 ft | 31 kts | 51° |
| 2026-04-23 00:16 | 53.54170 | 9.84903 | 29 ft | 32 kts | 51° |
| 2026-04-23 00:16 | 53.54286 | 9.85032 | 31 ft | 9 kts | 19° |
| 2026-04-23 00:16 | 53.54337 | 9.85097 | 31 ft | 10 kts | 48° |
| 2026-04-23 00:17 | 53.54313 | 9.85189 | 32 ft | 12 kts | 172° |
| 2026-04-23 00:17 | 53.54296 | 9.85172 | 32 ft | 1 kts | 242° |
| 2026-04-23 00:17 | 53.54291 | 9.85161 | 32 ft | 0 kts | 232° |
| 2026-04-23 00:18 | 53.54239 | 9.85054 | 31 ft | 42 kts | 231° |
| 2026-04-23 00:18 | 53.53901 | 9.84337 | 29 ft | 113 kts | 232° |
| 2026-04-23 00:18 | 53.53362 | 9.83203 | 75 ft | 163 kts | 234° |
| 2026-04-23 00:19 | 53.52740 | 9.81908 | 857 ft | 159 kts | 235° |
| 2026-04-23 00:19 | 53.52014 | 9.80416 | 1537 ft | 170 kts | 236° |
| 2026-04-23 00:19 | 53.51252 | 9.78800 | 2063 ft | 184 kts | 238° |
| 2026-04-23 00:19 | 53.50449 | 9.77036 | 2624 ft | 196 kts | 238° |
| 2026-04-23 00:20 | 53.49583 | 9.75196 | 3278 ft | 206 kts | 236° |
| 2026-04-23 00:20 | 53.48643 | 9.73282 | 3910 ft | 218 kts | 232° |
| 2026-04-23 00:20 | 53.47298 | 9.71948 | 4454 ft | 241 kts | 193° |
| 2026-04-23 00:20 | 53.45608 | 9.72265 | 4973 ft | 256 kts | 153° |
| 2026-04-23 00:21 | 53.44032 | 9.73592 | 5901 ft | 255 kts | 153° |
| 2026-04-23 00:21 | 53.42522 | 9.74847 | 6715 ft | 256 kts | 154° |
| 2026-04-23 00:21 | 53.41042 | 9.76513 | 7441 ft | 258 kts | 128° |
| 2026-04-23 00:21 | 53.40173 | 9.79133 | 8106 ft | 261 kts | 103° |
| 2026-04-23 00:22 | 53.40070 | 9.82232 | 8500 ft | 275 kts | 80° |
| 2026-04-23 00:22 | 53.40296 | 9.85233 | 9197 ft | 280 kts | 80° |
| 2026-04-23 00:22 | 53.40536 | 9.88494 | 10018 ft | 283 kts | 81° |
| 2026-04-23 00:22 | 53.40751 | 9.91808 | 10688 ft | 292 kts | 82° |
| 2026-04-23 00:23 | 53.40956 | 9.95234 | 11022 ft | 311 kts | 82° |
| 2026-04-23 00:23 | 53.41166 | 9.98939 | 11318 ft | 330 kts | 83° |
| 2026-04-23 00:23 | 53.41381 | 10.02884 | 11598 ft | 349 kts | 83° |
| 2026-04-23 00:23 | 53.41596 | 10.06956 | 12128 ft | 358 kts | 83° |
| 2026-04-23 00:24 | 53.41814 | 10.11149 | 12865 ft | 362 kts | 83° |
| 2026-04-23 00:24 | 53.42033 | 10.15360 | 13630 ft | 365 kts | 83° |
| 2026-04-23 00:24 | 53.42238 | 10.19628 | 14359 ft | 368 kts | 85° |
| 2026-04-23 00:24 | 53.42070 | 10.23940 | 14992 ft | 375 kts | 99° |
| 2026-04-23 00:25 | 53.41207 | 10.28100 | 15592 ft | 383 kts | 116° |
| 2026-04-23 00:25 | 53.39635 | 10.31725 | 16211 ft | 390 kts | 133° |
| 2026-04-23 00:25 | 53.37461 | 10.34485 | 16788 ft | 397 kts | 150° |
| 2026-04-23 00:25 | 53.34855 | 10.36148 | 17400 ft | 403 kts | 164° |
| 2026-04-23 00:26 | 53.32127 | 10.37303 | 18019 ft | 408 kts | 166° |
| 2026-04-23 00:26 | 53.29348 | 10.38451 | 18624 ft | 412 kts | 165° |
| 2026-04-23 00:26 | 53.26565 | 10.39644 | 19183 ft | 415 kts | 165° |
| 2026-04-23 00:26 | 53.23765 | 10.40877 | 19771 ft | 417 kts | 164° |
| 2026-04-23 00:27 | 53.21029 | 10.42094 | 20319 ft | 419 kts | 163° |
| 2026-04-23 00:27 | 53.18201 | 10.43348 | 20881 ft | 421 kts | 163° |
| 2026-04-23 00:27 | 53.15704 | 10.44447 | 21382 ft | 423 kts | 163° |
| 2026-04-23 00:27 | 53.12808 | 10.45689 | 21938 ft | 426 kts | 166° |
| 2026-04-23 00:28 | 53.09889 | 10.46651 | 22472 ft | 429 kts | 167° |
| 2026-04-23 00:28 | 53.06951 | 10.47573 | 23001 ft | 431 kts | 167° |
| 2026-04-23 00:28 | 53.03998 | 10.48490 | 23516 ft | 434 kts | 167° |
| 2026-04-23 00:28 | 53.01061 | 10.49394 | 23993 ft | 436 kts | 167° |
| 2026-04-23 00:29 | 52.98073 | 10.50311 | 24425 ft | 438 kts | 167° |
| 2026-04-23 00:29 | 52.95061 | 10.51246 | 24857 ft | 440 kts | 167° |
| 2026-04-23 00:29 | 52.92051 | 10.52180 | 25282 ft | 442 kts | 166° |
| 2026-04-23 00:29 | 52.89018 | 10.53120 | 25707 ft | 444 kts | 166° |
| 2026-04-23 00:30 | 52.85974 | 10.54063 | 26139 ft | 445 kts | 166° |
| 2026-04-23 00:30 | 52.82920 | 10.55008 | 26535 ft | 447 kts | 166° |
| 2026-04-23 00:30 | 52.79846 | 10.55950 | 26943 ft | 449 kts | 166° |
| 2026-04-23 00:30 | 52.76773 | 10.56896 | 27368 ft | 451 kts | 166° |
| 2026-04-23 00:31 | 52.73680 | 10.57844 | 27781 ft | 452 kts | 166° |
| 2026-04-23 00:31 | 52.70581 | 10.58795 | 28173 ft | 454 kts | 165° |
| 2026-04-23 00:31 | 52.67467 | 10.59755 | 28521 ft | 456 kts | 165° |
| 2026-04-23 00:31 | 52.64335 | 10.60716 | 28890 ft | 458 kts | 165° |
| 2026-04-23 00:32 | 52.61210 | 10.61660 | 29376 ft | 456 kts | 165° |
| 2026-04-23 00:32 | 52.58094 | 10.62602 | 29868 ft | 454 kts | 165° |
| 2026-04-23 00:32 | 52.54994 | 10.63542 | 30338 ft | 452 kts | 165° |
| 2026-04-23 00:32 | 52.51898 | 10.64482 | 30762 ft | 450 kts | 164° |
| 2026-04-23 00:33 | 52.48865 | 10.65402 | 31167 ft | 448 kts | 164° |
| 2026-04-23 00:33 | 52.45804 | 10.66332 | 31542 ft | 446 kts | 164° |
| 2026-04-23 00:33 | 52.42761 | 10.67247 | 31896 ft | 444 kts | 164° |
| 2026-04-23 00:33 | 52.39720 | 10.68166 | 32231 ft | 443 kts | 163° |
| 2026-04-23 00:34 | 52.36690 | 10.69083 | 32553 ft | 442 kts | 163° |
| 2026-04-23 00:34 | 52.33671 | 10.70003 | 32872 ft | 441 kts | 163° |
| 2026-04-23 00:34 | 52.30657 | 10.70914 | 33173 ft | 440 kts | 163° |
| 2026-04-23 00:34 | 52.27643 | 10.71815 | 33480 ft | 439 kts | 163° |
| 2026-04-23 00:35 | 52.24639 | 10.72712 | 33836 ft | 437 kts | 163° |
| 2026-04-23 00:35 | 52.21661 | 10.73604 | 34176 ft | 434 kts | 162° |
| 2026-04-23 00:35 | 52.18687 | 10.74494 | 34442 ft | 433 kts | 162° |
| 2026-04-23 00:35 | 52.15725 | 10.75380 | 34645 ft | 433 kts | 163° |
| 2026-04-23 00:36 | 52.12760 | 10.76270 | 34817 ft | 433 kts | 163° |
| 2026-04-23 00:36 | 52.09799 | 10.77156 | 34990 ft | 433 kts | 163° |
| 2026-04-23 00:36 | 52.06863 | 10.78031 | 35169 ft | 434 kts | 163° |
| 2026-04-23 00:36 | 52.03862 | 10.78921 | 35344 ft | 434 kts | 163° |
| 2026-04-23 00:37 | 52.00933 | 10.79787 | 35534 ft | 433 kts | 163° |
| 2026-04-23 00:37 | 51.97966 | 10.80672 | 35728 ft | 433 kts | 163° |
| 2026-04-23 00:37 | 51.94988 | 10.81550 | 35870 ft | 433 kts | 163° |
| 2026-04-23 00:37 | 51.92022 | 10.82423 | 35977 ft | 434 kts | 163° |
| 2026-04-23 00:38 | 51.89037 | 10.83307 | 36098 ft | 435 kts | 163° |
| 2026-04-23 00:38 | 51.86047 | 10.84189 | 36250 ft | 436 kts | 163° |
| 2026-04-23 00:38 | 51.83066 | 10.85070 | 36412 ft | 436 kts | 163° |
| 2026-04-23 00:38 | 51.80079 | 10.85944 | 36573 ft | 436 kts | 163° |
| 2026-04-23 00:39 | 51.77097 | 10.86821 | 36735 ft | 436 kts | 163° |
| 2026-04-23 00:39 | 51.74148 | 10.87896 | 36884 ft | 431 kts | 157° |
| 2026-04-23 00:39 | 51.71405 | 10.89737 | 36991 ft | 423 kts | 146° |
| 2026-04-23 00:39 | 51.69033 | 10.92354 | 37088 ft | 416 kts | 135° |
| 2026-04-23 00:40 | 51.67044 | 10.95675 | 37190 ft | 410 kts | 124° |
| 2026-04-23 00:40 | 51.64477 | 11.03713 | 37378 ft | 404 kts | 105° |
| 2026-04-23 00:41 | 51.62835 | 11.12338 | 37398 ft | 404 kts | 105° |
| 2026-04-23 00:41 | 51.61137 | 11.21051 | 37390 ft | 410 kts | 105° |
| 2026-04-23 00:42 | 51.59385 | 11.29823 | 37364 ft | 414 kts | 105° |
| 2026-04-23 00:42 | 51.57606 | 11.38652 | 37365 ft | 415 kts | 105° |
| 2026-04-23 00:43 | 51.55818 | 11.47481 | 37363 ft | 416 kts | 105° |
| 2026-04-23 00:43 | 51.54029 | 11.56296 | 37351 ft | 414 kts | 105° |
| 2026-04-23 00:44 | 51.52241 | 11.65086 | 37358 ft | 415 kts | 105° |
| 2026-04-23 00:44 | 51.50444 | 11.73846 | 37358 ft | 416 kts | 105° |
| 2026-04-23 00:45 | 51.48635 | 11.82646 | 37354 ft | 416 kts | 105° |
| 2026-04-23 00:45 | 51.46816 | 11.91438 | 37356 ft | 415 kts | 106° |
| 2026-04-23 00:46 | 51.44992 | 12.00226 | 37352 ft | 414 kts | 106° |
| 2026-04-23 00:46 | 51.43165 | 12.09013 | 37360 ft | 415 kts | 105° |
| 2026-04-23 00:47 | 51.41330 | 12.17796 | 37344 ft | 416 kts | 106° |
| 2026-04-23 00:47 | 51.39492 | 12.26506 | 37352 ft | 414 kts | 106° |
| 2026-04-23 00:48 | 51.37643 | 12.35263 | 37348 ft | 414 kts | 106° |
| 2026-04-23 00:48 | 51.35790 | 12.43994 | 37348 ft | 416 kts | 106° |
| 2026-04-23 00:49 | 51.33922 | 12.52730 | 37345 ft | 415 kts | 106° |
| 2026-04-23 00:49 | 51.32043 | 12.61496 | 37338 ft | 416 kts | 106° |
| 2026-04-23 00:50 | 51.30166 | 12.70260 | 37339 ft | 418 kts | 106° |
| 2026-04-23 00:50 | 51.28281 | 12.79003 | 37339 ft | 416 kts | 106° |
| 2026-04-23 00:51 | 51.26387 | 12.87762 | 37337 ft | 415 kts | 106° |
| 2026-04-23 00:51 | 51.24500 | 12.96431 | 37359 ft | 417 kts | 106° |
| 2026-04-23 00:52 | 51.22592 | 13.05150 | 37338 ft | 416 kts | 106° |
| 2026-04-23 00:52 | 51.20676 | 13.13867 | 37335 ft | 416 kts | 106° |
| 2026-04-23 00:53 | 51.18758 | 13.22576 | 37324 ft | 417 kts | 106° |
| 2026-04-23 00:53 | 51.16828 | 13.31303 | 37316 ft | 416 kts | 106° |
| 2026-04-23 00:54 | 51.14896 | 13.39987 | 37313 ft | 417 kts | 106° |
| 2026-04-23 00:54 | 51.12947 | 13.48717 | 37302 ft | 418 kts | 106° |
| 2026-04-23 00:55 | 51.11000 | 13.57407 | 37295 ft | 418 kts | 106° |
| 2026-04-23 00:55 | 51.09040 | 13.66115 | 37290 ft | 417 kts | 106° |
| 2026-04-23 00:56 | 51.07078 | 13.74805 | 37289 ft | 419 kts | 106° |
| 2026-04-23 00:56 | 51.05103 | 13.83512 | 37288 ft | 418 kts | 106° |
| 2026-04-23 00:57 | 51.03121 | 13.92206 | 37320 ft | 418 kts | 106° |
| 2026-04-23 00:57 | 51.01135 | 14.00877 | 37317 ft | 418 kts | 106° |
| 2026-04-23 00:58 | 50.99142 | 14.09548 | 37309 ft | 419 kts | 106° |
| 2026-04-23 00:58 | 50.97155 | 14.18165 | 37309 ft | 417 kts | 107° |
| 2026-04-23 00:59 | 50.95154 | 14.26815 | 37324 ft | 418 kts | 107° |
| 2026-04-23 00:59 | 50.92754 | 14.35244 | 37303 ft | 426 kts | 119° |
| 2026-04-23 00:59 | 50.90857 | 14.38904 | 37318 ft | 433 kts | 130° |
| 2026-04-23 01:00 | 50.88512 | 14.41935 | 37314 ft | 438 kts | 139° |
| 2026-04-23 01:00 | 50.83488 | 14.47459 | 37304 ft | 438 kts | 140° |
| 2026-04-23 01:01 | 50.78501 | 14.52996 | 37306 ft | 438 kts | 139° |
| 2026-04-23 01:01 | 50.74368 | 14.57631 | 37298 ft | 438 kts | 139° |
| 2026-04-23 01:02 | 50.68780 | 14.63891 | 37304 ft | 439 kts | 139° |
| 2026-04-23 01:02 | 50.64588 | 14.68566 | 37296 ft | 441 kts | 139° |
| 2026-04-23 01:03 | 50.59661 | 14.74034 | 37300 ft | 440 kts | 139° |
| 2026-04-23 01:03 | 50.54651 | 14.79595 | 37296 ft | 440 kts | 139° |
| 2026-04-23 01:04 | 50.49639 | 14.85141 | 37279 ft | 440 kts | 139° |
| 2026-04-23 01:04 | 50.42866 | 14.94638 | 37281 ft | 434 kts | 131° |
| 2026-04-23 01:05 | 50.38494 | 15.01122 | 37277 ft | 435 kts | 131° |
| 2026-04-23 01:05 | 50.34050 | 15.07660 | 37295 ft | 436 kts | 131° |
| 2026-04-23 01:06 | 50.29650 | 15.14107 | 37278 ft | 436 kts | 131° |
| 2026-04-23 01:06 | 50.25221 | 15.20586 | 37274 ft | 436 kts | 131° |
| 2026-04-23 01:07 | 50.20786 | 15.27060 | 37268 ft | 437 kts | 131° |
| 2026-04-23 01:07 | 50.16347 | 15.33533 | 37273 ft | 437 kts | 131° |
| 2026-04-23 01:08 | 50.11897 | 15.39979 | 37263 ft | 437 kts | 131° |
| 2026-04-23 01:08 | 50.07440 | 15.46419 | 37261 ft | 437 kts | 131° |
| 2026-04-23 01:09 | 50.02983 | 15.52855 | 37337 ft | 438 kts | 131° |
| 2026-04-23 01:09 | 49.98514 | 15.59282 | 37525 ft | 437 kts | 131° |
| 2026-04-23 01:10 | 49.94047 | 15.65700 | 37708 ft | 437 kts | 131° |
| 2026-04-23 01:10 | 49.89577 | 15.72111 | 37844 ft | 438 kts | 131° |
| 2026-04-23 01:11 | 49.85131 | 15.78484 | 37979 ft | 439 kts | 131° |
| 2026-04-23 01:11 | 49.80636 | 15.84888 | 38116 ft | 439 kts | 131° |
| 2026-04-23 01:12 | 49.76142 | 15.91270 | 38247 ft | 439 kts | 131° |
| 2026-04-23 01:12 | 49.71607 | 15.97689 | 38318 ft | 440 kts | 132° |
| 2026-04-23 01:13 | 49.67101 | 16.04028 | 38414 ft | 441 kts | 132° |
| 2026-04-23 01:13 | 49.62568 | 16.10420 | 38482 ft | 441 kts | 132° |
| 2026-04-23 01:14 | 49.58026 | 16.16807 | 38556 ft | 442 kts | 132° |
| 2026-04-23 01:14 | 49.53478 | 16.23184 | 38636 ft | 442 kts | 132° |
| 2026-04-23 01:15 | 49.48927 | 16.29545 | 38726 ft | 442 kts | 132° |
| 2026-04-23 01:15 | 49.44367 | 16.35902 | 38761 ft | 443 kts | 132° |
| 2026-04-23 01:16 | 49.39792 | 16.42271 | 38806 ft | 444 kts | 132° |
| 2026-04-23 01:16 | 49.35215 | 16.48626 | 38844 ft | 444 kts | 132° |
| 2026-04-23 01:17 | 49.30637 | 16.54983 | 38876 ft | 444 kts | 132° |
| 2026-04-23 01:17 | 49.26037 | 16.61322 | 38903 ft | 445 kts | 133° |
| 2026-04-23 01:18 | 49.21432 | 16.67653 | 38941 ft | 445 kts | 132° |
| 2026-04-23 01:18 | 49.16817 | 16.73980 | 38973 ft | 446 kts | 133° |
| 2026-04-23 01:19 | 49.12221 | 16.80261 | 38988 ft | 446 kts | 133° |
| 2026-04-23 01:19 | 49.07590 | 16.86599 | 38998 ft | 447 kts | 133° |
| 2026-04-23 01:20 | 49.02950 | 16.92940 | 39022 ft | 447 kts | 133° |
| 2026-04-23 01:20 | 48.98303 | 16.99258 | 39050 ft | 448 kts | 133° |
| 2026-04-23 01:21 | 48.93646 | 17.05575 | 39080 ft | 448 kts | 133° |
| 2026-04-23 01:21 | 48.88979 | 17.11861 | 39096 ft | 446 kts | 133° |
| 2026-04-23 01:22 | 48.84398 | 17.18198 | 39098 ft | 443 kts | 130° |
| 2026-04-23 01:22 | 48.80104 | 17.24823 | 39114 ft | 443 kts | 129° |
| 2026-04-23 01:23 | 48.75783 | 17.31485 | 39117 ft | 443 kts | 129° |
| 2026-04-23 01:23 | 48.71451 | 17.38126 | 39131 ft | 443 kts | 129° |
| 2026-04-23 01:24 | 48.67109 | 17.44757 | 39138 ft | 443 kts | 129° |
| 2026-04-23 01:24 | 48.62774 | 17.51369 | 39145 ft | 443 kts | 129° |
| 2026-04-23 01:25 | 48.58431 | 17.57984 | 39153 ft | 444 kts | 130° |
| 2026-04-23 01:25 | 48.54092 | 17.64572 | 39161 ft | 445 kts | 130° |
| 2026-04-23 01:26 | 48.49720 | 17.71179 | 39157 ft | 445 kts | 130° |
| 2026-04-23 01:26 | 48.45342 | 17.77784 | 39156 ft | 447 kts | 130° |
| 2026-04-23 01:27 | 48.40935 | 17.84414 | 39167 ft | 448 kts | 130° |
| 2026-04-23 01:27 | 48.36524 | 17.91052 | 39217 ft | 449 kts | 130° |
| 2026-04-23 01:28 | 48.32094 | 17.97696 | 39220 ft | 450 kts | 130° |
| 2026-04-23 01:28 | 48.27650 | 18.04342 | 39210 ft | 450 kts | 130° |
| 2026-04-23 01:29 | 48.23212 | 18.10958 | 39203 ft | 449 kts | 130° |
| 2026-04-23 01:29 | 48.18770 | 18.17561 | 39203 ft | 449 kts | 130° |
| 2026-04-23 01:30 | 48.14349 | 18.24118 | 39216 ft | 450 kts | 130° |
| 2026-04-23 01:30 | 48.09886 | 18.30718 | 39206 ft | 451 kts | 130° |
| 2026-04-23 01:31 | 48.05417 | 18.37318 | 39201 ft | 452 kts | 130° |
| 2026-04-23 01:31 | 48.00926 | 18.43924 | 39202 ft | 453 kts | 131° |
| 2026-04-23 01:32 | 47.96425 | 18.50533 | 39202 ft | 454 kts | 131° |
| 2026-04-23 01:32 | 47.91930 | 18.57116 | 39206 ft | 455 kts | 131° |
| 2026-04-23 01:33 | 47.87399 | 18.63732 | 39205 ft | 456 kts | 131° |
| 2026-04-23 01:33 | 47.82850 | 18.70349 | 39203 ft | 457 kts | 131° |
| 2026-04-23 01:34 | 47.79069 | 18.77617 | 39203 ft | 448 kts | 116° |
| 2026-04-23 01:34 | 47.76012 | 18.85667 | 39215 ft | 448 kts | 115° |
| 2026-04-23 01:35 | 47.72918 | 18.93740 | 39201 ft | 449 kts | 115° |
| 2026-04-23 01:35 | 47.69807 | 19.01749 | 39180 ft | 450 kts | 116° |
| 2026-04-23 01:36 | 47.66682 | 19.09758 | 39189 ft | 451 kts | 116° |
| 2026-04-23 01:36 | 47.63533 | 19.17826 | 39176 ft | 451 kts | 116° |
| 2026-04-23 01:37 | 47.60378 | 19.25864 | 39182 ft | 452 kts | 116° |
| 2026-04-23 01:37 | 47.57203 | 19.33935 | 39176 ft | 453 kts | 116° |
| 2026-04-23 01:38 | 47.54053 | 19.41921 | 39170 ft | 451 kts | 116° |
| 2026-04-23 01:38 | 47.50877 | 19.49946 | 39172 ft | 452 kts | 116° |
| 2026-04-23 01:39 | 47.47692 | 19.57968 | 39184 ft | 452 kts | 116° |
| 2026-04-23 01:39 | 47.44499 | 19.65961 | 39165 ft | 452 kts | 116° |
| 2026-04-23 01:40 | 47.41300 | 19.73956 | 39155 ft | 452 kts | 116° |
| 2026-04-23 01:40 | 47.38093 | 19.81964 | 39152 ft | 453 kts | 116° |
| 2026-04-23 01:41 | 47.34893 | 19.89953 | 39163 ft | 451 kts | 116° |
| 2026-04-23 01:41 | 47.31701 | 19.97869 | 39152 ft | 452 kts | 116° |
| 2026-04-23 01:42 | 47.28476 | 20.05848 | 39147 ft | 453 kts | 117° |
| 2026-04-23 01:42 | 47.25237 | 20.13837 | 39145 ft | 454 kts | 117° |
| 2026-04-23 01:43 | 47.21996 | 20.21812 | 39143 ft | 454 kts | 117° |
| 2026-04-23 01:43 | 47.18748 | 20.29778 | 39142 ft | 454 kts | 117° |
| 2026-04-23 01:44 | 47.15661 | 20.37339 | 39141 ft | 455 kts | 117° |
| 2026-04-23 01:44 | 47.12395 | 20.45327 | 39142 ft | 456 kts | 117° |
| 2026-04-23 01:45 | 47.09122 | 20.53296 | 39143 ft | 456 kts | 117° |
| 2026-04-23 01:45 | 47.05837 | 20.61247 | 39140 ft | 455 kts | 117° |
| 2026-04-23 01:46 | 47.02559 | 20.69153 | 39145 ft | 455 kts | 117° |
| 2026-04-23 01:46 | 46.99267 | 20.77108 | 39146 ft | 455 kts | 117° |
| 2026-04-23 01:47 | 46.96539 | 20.83680 | 39146 ft | 456 kts | 117° |
| 2026-04-23 01:47 | 46.93232 | 20.91616 | 39148 ft | 454 kts | 117° |
| 2026-04-23 01:48 | 46.89930 | 20.99515 | 39142 ft | 455 kts | 117° |
| 2026-04-23 01:48 | 46.86619 | 21.07422 | 39143 ft | 456 kts | 117° |
| 2026-04-23 01:49 | 46.83292 | 21.15329 | 39141 ft | 456 kts | 117° |
| 2026-04-23 01:49 | 46.79969 | 21.23203 | 39163 ft | 455 kts | 117° |
| 2026-04-23 01:50 | 46.76633 | 21.31071 | 39148 ft | 456 kts | 118° |
| 2026-04-23 01:50 | 46.73325 | 21.38880 | 39146 ft | 456 kts | 118° |
| 2026-04-23 01:51 | 46.69982 | 21.46734 | 39146 ft | 454 kts | 118° |
| 2026-04-23 01:51 | 46.66907 | 21.54758 | 39151 ft | 453 kts | 114° |
| 2026-04-23 01:52 | 46.64001 | 21.62911 | 39154 ft | 454 kts | 114° |
| 2026-04-23 01:52 | 46.61076 | 21.71065 | 39153 ft | 455 kts | 114° |
| 2026-04-23 01:53 | 46.58134 | 21.79233 | 39153 ft | 456 kts | 114° |
| 2026-04-23 01:53 | 46.55185 | 21.87366 | 39154 ft | 454 kts | 114° |
| 2026-04-23 01:54 | 46.52250 | 21.95494 | 39157 ft | 455 kts | 114° |
| 2026-04-23 01:54 | 46.49291 | 22.03628 | 39158 ft | 456 kts | 114° |
| 2026-04-23 01:55 | 46.46318 | 22.11775 | 39161 ft | 457 kts | 114° |
| 2026-04-23 01:55 | 46.43331 | 22.19846 | 39161 ft | 459 kts | 116° |
| 2026-04-23 01:56 | 46.40528 | 22.27414 | 39169 ft | 459 kts | 113° |
| 2026-04-23 01:56 | 46.37595 | 22.35595 | 39165 ft | 460 kts | 114° |
| 2026-04-23 01:57 | 46.34593 | 22.43762 | 39170 ft | 460 kts | 114° |
| 2026-04-23 01:57 | 46.31578 | 22.51907 | 39176 ft | 459 kts | 114° |
| 2026-04-23 01:58 | 46.28557 | 22.60051 | 39181 ft | 460 kts | 115° |
| 2026-04-23 01:58 | 46.25521 | 22.68214 | 39185 ft | 461 kts | 115° |
| 2026-04-23 01:59 | 46.22491 | 22.76331 | 39187 ft | 461 kts | 115° |
| 2026-04-23 01:59 | 46.19446 | 22.84465 | 39189 ft | 461 kts | 115° |
| 2026-04-23 02:00 | 46.16386 | 22.92616 | 39189 ft | 461 kts | 115° |
| 2026-04-23 02:00 | 46.13323 | 23.00750 | 39187 ft | 462 kts | 115° |
| 2026-04-23 02:01 | 46.10248 | 23.08890 | 39182 ft | 461 kts | 115° |
| 2026-04-23 02:01 | 46.07190 | 23.16962 | 39174 ft | 462 kts | 115° |
| 2026-04-23 02:02 | 46.04111 | 23.25065 | 39181 ft | 463 kts | 115° |
| 2026-04-23 02:02 | 46.01010 | 23.33201 | 39167 ft | 464 kts | 115° |
| 2026-04-23 02:03 | 45.97897 | 23.41343 | 39160 ft | 463 kts | 116° |
| 2026-04-23 02:03 | 45.94786 | 23.49457 | 39160 ft | 464 kts | 116° |
| 2026-04-23 02:04 | 45.91660 | 23.57586 | 39160 ft | 465 kts | 116° |
| 2026-04-23 02:04 | 45.88540 | 23.65672 | 39149 ft | 466 kts | 116° |
| 2026-04-23 02:05 | 45.85373 | 23.73858 | 39128 ft | 466 kts | 116° |
| 2026-04-23 02:05 | 45.82242 | 23.81925 | 39107 ft | 466 kts | 116° |
| 2026-04-23 02:06 | 45.79077 | 23.90058 | 39091 ft | 467 kts | 116° |
| 2026-04-23 02:06 | 45.75910 | 23.98164 | 39079 ft | 465 kts | 116° |
| 2026-04-23 02:07 | 45.72727 | 24.06243 | 39083 ft | 466 kts | 116° |
| 2026-04-23 02:07 | 45.69538 | 24.14344 | 39137 ft | 467 kts | 116° |
| 2026-04-23 02:08 | 45.66359 | 24.22418 | 39149 ft | 466 kts | 117° |
| 2026-04-23 02:08 | 45.63164 | 24.30509 | 39149 ft | 468 kts | 117° |
| 2026-04-23 02:09 | 45.59959 | 24.38599 | 39138 ft | 467 kts | 117° |
| 2026-04-23 02:09 | 45.56750 | 24.46675 | 39145 ft | 467 kts | 117° |
| 2026-04-23 02:10 | 45.53536 | 24.54747 | 39150 ft | 468 kts | 117° |
| 2026-04-23 02:10 | 45.50325 | 24.62778 | 39145 ft | 470 kts | 117° |
| 2026-04-23 02:11 | 45.47059 | 24.70921 | 39155 ft | 470 kts | 117° |
| 2026-04-23 02:11 | 45.43828 | 24.78961 | 39143 ft | 471 kts | 117° |
| 2026-04-23 02:12 | 45.40568 | 24.87051 | 39148 ft | 470 kts | 118° |
| 2026-04-23 02:12 | 45.37307 | 24.95120 | 39145 ft | 471 kts | 118° |
| 2026-04-23 02:13 | 45.34028 | 25.03204 | 39146 ft | 470 kts | 118° |
| 2026-04-23 02:13 | 45.30831 | 25.11066 | 39142 ft | 471 kts | 118° |
| 2026-04-23 02:14 | 45.27540 | 25.19133 | 39141 ft | 473 kts | 118° |
| 2026-04-23 02:14 | 45.24260 | 25.27151 | 39140 ft | 472 kts | 118° |
| 2026-04-23 02:15 | 45.19299 | 25.39236 | 39133 ft | 473 kts | 118° |
| 2026-04-23 02:16 | 45.15979 | 25.47292 | 39129 ft | 473 kts | 118° |
| 2026-04-23 02:16 | 45.12651 | 25.55347 | 39119 ft | 474 kts | 118° |
| 2026-04-23 02:17 | 45.09332 | 25.63358 | 39113 ft | 472 kts | 118° |
| 2026-04-23 02:17 | 45.06075 | 25.71196 | 39111 ft | 474 kts | 119° |
| 2026-04-23 02:18 | 45.02725 | 25.79234 | 39106 ft | 473 kts | 119° |
| 2026-04-23 02:18 | 44.99375 | 25.87250 | 39106 ft | 475 kts | 119° |
| 2026-04-23 02:19 | 44.96013 | 25.95271 | 39097 ft | 474 kts | 119° |
| 2026-04-23 02:19 | 44.92693 | 26.03318 | 39098 ft | 475 kts | 120° |
| 2026-04-23 02:20 | 44.89492 | 26.11461 | 39088 ft | 475 kts | 121° |
| 2026-04-23 02:20 | 44.85940 | 26.19333 | 39082 ft | 476 kts | 121° |
| 2026-04-23 02:21 | 44.82517 | 26.27231 | 39073 ft | 475 kts | 120° |
| 2026-04-23 02:21 | 44.79105 | 26.35268 | 39075 ft | 476 kts | 120° |
| 2026-04-23 02:22 | 44.75722 | 26.43214 | 39072 ft | 476 kts | 120° |
| 2026-04-23 02:22 | 44.72308 | 26.51200 | 39068 ft | 475 kts | 120° |
| 2026-04-23 02:23 | 44.68893 | 26.59167 | 39064 ft | 476 kts | 120° |
| 2026-04-23 02:23 | 44.65471 | 26.67127 | 39065 ft | 476 kts | 121° |
| 2026-04-23 02:24 | 44.62036 | 26.75096 | 39061 ft | 476 kts | 121° |
| 2026-04-23 02:24 | 44.58600 | 26.83038 | 39061 ft | 477 kts | 121° |
| 2026-04-23 02:25 | 44.54797 | 26.90659 | 39059 ft | 476 kts | 125° |
| 2026-04-23 02:25 | 44.51154 | 26.98420 | 39056 ft | 477 kts | 121° |
| 2026-04-23 02:26 | 44.48136 | 27.06648 | 39057 ft | 475 kts | 109° |
| 2026-04-23 02:26 | 44.45501 | 27.15083 | 39060 ft | 477 kts | 118° |
| 2026-04-23 02:27 | 44.42103 | 27.23069 | 39060 ft | 477 kts | 122° |
| 2026-04-23 02:27 | 44.38586 | 27.30980 | 39056 ft | 479 kts | 122° |
| 2026-04-23 02:28 | 44.34661 | 27.38514 | 39052 ft | 479 kts | 126° |
| 2026-04-23 02:28 | 44.30953 | 27.46179 | 39053 ft | 479 kts | 122° |
| 2026-04-23 02:29 | 44.27443 | 27.54121 | 39055 ft | 480 kts | 122° |
| 2026-04-23 02:29 | 44.23931 | 27.62068 | 39055 ft | 480 kts | 122° |
| 2026-04-23 02:30 | 44.20410 | 27.69975 | 39052 ft | 481 kts | 122° |
| 2026-04-23 02:30 | 44.16872 | 27.77894 | 39052 ft | 480 kts | 122° |
| 2026-04-23 02:31 | 44.13320 | 27.85794 | 39053 ft | 482 kts | 122° |
| 2026-04-23 02:31 | 44.09760 | 27.93713 | 39052 ft | 483 kts | 122° |
| 2026-04-23 02:32 | 44.06212 | 28.01622 | 39046 ft | 482 kts | 122° |
| 2026-04-23 02:32 | 44.02667 | 28.09467 | 39046 ft | 482 kts | 123° |
| 2026-04-23 02:33 | 43.99086 | 28.17370 | 39040 ft | 483 kts | 123° |
| 2026-04-23 02:33 | 43.95496 | 28.25286 | 39036 ft | 484 kts | 123° |
| 2026-04-23 02:34 | 43.92506 | 28.31856 | 39038 ft | 485 kts | 123° |
| 2026-04-23 02:34 | 43.88893 | 28.39758 | 39042 ft | 485 kts | 123° |
| 2026-04-23 02:35 | 43.85263 | 28.47668 | 39048 ft | 486 kts | 123° |
| 2026-04-23 02:35 | 43.81632 | 28.55560 | 39046 ft | 486 kts | 123° |
| 2026-04-23 02:36 | 43.78009 | 28.63463 | 39043 ft | 486 kts | 123° |
| 2026-04-23 02:36 | 43.74374 | 28.71363 | 39062 ft | 487 kts | 124° |
| 2026-04-23 02:37 | 43.70714 | 28.79273 | 39064 ft | 488 kts | 124° |
| 2026-04-23 02:37 | 43.66815 | 28.86931 | 39064 ft | 487 kts | 127° |
| 2026-04-23 02:38 | 43.62834 | 28.94526 | 39057 ft | 488 kts | 127° |
| 2026-04-23 02:38 | 43.58880 | 29.02067 | 39053 ft | 487 kts | 127° |
| 2026-04-23 02:39 | 43.54893 | 29.09646 | 39060 ft | 488 kts | 128° |
| 2026-04-23 02:39 | 43.50903 | 29.17204 | 39053 ft | 488 kts | 128° |
| 2026-04-23 02:40 | 43.46898 | 29.24784 | 39054 ft | 489 kts | 128° |
| 2026-04-23 02:40 | 43.42892 | 29.32344 | 39056 ft | 489 kts | 128° |
| 2026-04-23 02:41 | 43.38876 | 29.39902 | 39056 ft | 488 kts | 128° |
| 2026-04-23 02:41 | 43.34845 | 29.47439 | 39053 ft | 490 kts | 129° |
| 2026-04-23 02:42 | 43.30804 | 29.54992 | 39054 ft | 490 kts | 128° |
| 2026-04-23 02:42 | 43.26765 | 29.62535 | 39057 ft | 491 kts | 128° |
| 2026-04-23 02:43 | 43.22758 | 29.70022 | 39056 ft | 490 kts | 128° |
| 2026-04-23 02:43 | 43.18719 | 29.77548 | 39053 ft | 489 kts | 129° |
| 2026-04-23 02:44 | 43.14653 | 29.85047 | 39054 ft | 490 kts | 129° |
| 2026-04-23 02:44 | 43.10606 | 29.92520 | 39056 ft | 490 kts | 128° |
| 2026-04-23 02:45 | 43.06556 | 30.00029 | 39054 ft | 491 kts | 129° |
| 2026-04-23 02:45 | 43.02487 | 30.07524 | 39053 ft | 491 kts | 129° |
| 2026-04-23 02:46 | 42.98403 | 30.15013 | 39056 ft | 491 kts | 129° |
| 2026-04-23 02:46 | 42.94324 | 30.22479 | 39051 ft | 492 kts | 129° |
| 2026-04-23 02:47 | 42.90253 | 30.29907 | 39053 ft | 491 kts | 129° |
| 2026-04-23 02:47 | 42.86155 | 30.37369 | 39051 ft | 491 kts | 129° |
| 2026-04-23 02:48 | 42.82060 | 30.44814 | 39049 ft | 491 kts | 130° |
| 2026-04-23 02:48 | 42.77951 | 30.52251 | 39057 ft | 491 kts | 130° |
| 2026-04-23 02:49 | 42.74274 | 30.60083 | 39044 ft | 495 kts | 114° |
| 2026-04-23 02:49 | 42.73289 | 30.64577 | 39057 ft | 498 kts | 101° |
| 2026-04-23 02:49 | 42.72784 | 30.69251 | 39059 ft | 500 kts | 98° |
| 2026-04-23 02:50 | 42.71940 | 30.78626 | 39058 ft | 501 kts | 98° |
| 2026-04-23 02:50 | 42.71012 | 30.87980 | 39054 ft | 501 kts | 99° |
| 2026-04-23 02:51 | 42.70042 | 30.97361 | 39053 ft | 501 kts | 99° |
| 2026-04-23 02:51 | 42.69068 | 31.06733 | 39049 ft | 501 kts | 99° |
| 2026-04-23 02:52 | 42.68084 | 31.16125 | 39049 ft | 503 kts | 99° |
| 2026-04-23 02:52 | 42.67087 | 31.25544 | 39050 ft | 504 kts | 99° |
| 2026-04-23 02:53 | 42.66084 | 31.34955 | 39044 ft | 503 kts | 99° |
| 2026-04-23 02:53 | 42.65078 | 31.44345 | 39048 ft | 501 kts | 99° |
| 2026-04-23 02:54 | 42.64060 | 31.53737 | 39049 ft | 504 kts | 100° |
| 2026-04-23 02:54 | 42.63040 | 31.63086 | 39052 ft | 502 kts | 99° |
| 2026-04-23 02:55 | 42.62011 | 31.72467 | 39047 ft | 503 kts | 100° |
| 2026-04-23 02:55 | 42.60971 | 31.81859 | 39048 ft | 504 kts | 100° |
| 2026-04-23 02:56 | 42.59917 | 31.91274 | 39053 ft | 505 kts | 100° |
| 2026-04-23 02:56 | 42.58858 | 32.00719 | 39042 ft | 506 kts | 100° |
| 2026-04-23 02:57 | 42.57804 | 32.10158 | 39039 ft | 506 kts | 100° |
| 2026-04-23 02:57 | 42.56731 | 32.19589 | 39048 ft | 506 kts | 100° |
| 2026-04-23 02:58 | 42.55648 | 32.28997 | 39041 ft | 509 kts | 100° |
| 2026-04-23 02:58 | 42.54531 | 32.38569 | 39046 ft | 512 kts | 100° |
| 2026-04-23 02:59 | 42.53413 | 32.48010 | 39042 ft | 509 kts | 101° |
| 2026-04-23 02:59 | 42.52276 | 32.57522 | 39047 ft | 510 kts | 99° |
| 2026-04-23 03:00 | 42.51163 | 32.67044 | 39049 ft | 513 kts | 99° |
| 2026-04-23 03:00 | 42.50036 | 32.76637 | 39050 ft | 515 kts | 99° |
| 2026-04-23 03:01 | 42.48902 | 32.86142 | 39048 ft | 515 kts | 99° |
| 2026-04-23 03:01 | 42.47746 | 32.95706 | 39039 ft | 514 kts | 100° |
| 2026-04-23 03:02 | 42.46574 | 33.05278 | 39040 ft | 514 kts | 100° |
| 2026-04-23 03:02 | 42.45401 | 33.14833 | 39045 ft | 515 kts | 100° |
| 2026-04-23 03:03 | 42.44215 | 33.24375 | 39044 ft | 514 kts | 100° |
| 2026-04-23 03:03 | 42.43031 | 33.33894 | 39042 ft | 512 kts | 99° |
| 2026-04-23 03:04 | 42.41839 | 33.43407 | 39047 ft | 512 kts | 99° |
| 2026-04-23 03:04 | 42.40635 | 33.52912 | 39043 ft | 513 kts | 100° |
| 2026-04-23 03:05 | 42.39424 | 33.62414 | 39046 ft | 512 kts | 100° |
| 2026-04-23 03:05 | 42.38206 | 33.71884 | 39045 ft | 508 kts | 100° |
| 2026-04-23 03:06 | 42.36995 | 33.81322 | 39045 ft | 509 kts | 100° |
| 2026-04-23 03:06 | 42.35771 | 33.90750 | 39047 ft | 510 kts | 101° |
| 2026-04-23 03:07 | 42.34548 | 34.00123 | 39036 ft | 509 kts | 101° |
| 2026-04-23 03:07 | 42.33319 | 34.09508 | 39043 ft | 507 kts | 101° |
| 2026-04-23 03:08 | 42.32082 | 34.18877 | 39039 ft | 506 kts | 101° |
| 2026-04-23 03:08 | 42.30832 | 34.28259 | 39041 ft | 507 kts | 101° |
| 2026-04-23 03:09 | 42.29572 | 34.37618 | 39034 ft | 506 kts | 101° |
| 2026-04-23 03:09 | 42.28306 | 34.46947 | 39044 ft | 505 kts | 102° |
| 2026-04-23 03:10 | 42.27044 | 34.56238 | 39038 ft | 505 kts | 102° |
| 2026-04-23 03:10 | 42.25775 | 34.65564 | 39038 ft | 505 kts | 102° |
| 2026-04-23 03:11 | 42.24498 | 34.74901 | 39030 ft | 506 kts | 102° |
| 2026-04-23 03:11 | 42.23210 | 34.84216 | 39035 ft | 504 kts | 102° |
| 2026-04-23 03:12 | 42.21900 | 34.93555 | 39035 ft | 505 kts | 102° |
| 2026-04-23 03:12 | 42.20596 | 35.02857 | 39035 ft | 506 kts | 102° |
| 2026-04-23 03:13 | 42.19287 | 35.12183 | 39033 ft | 506 kts | 103° |
| 2026-04-23 03:13 | 42.17965 | 35.21496 | 39032 ft | 505 kts | 103° |
| 2026-04-23 03:14 | 42.16631 | 35.30809 | 39033 ft | 506 kts | 103° |
| 2026-04-23 03:14 | 42.15301 | 35.40073 | 39032 ft | 506 kts | 103° |
| 2026-04-23 03:15 | 42.13952 | 35.49406 | 39043 ft | 508 kts | 104° |
| 2026-04-23 03:15 | 42.12596 | 35.58764 | 39037 ft | 509 kts | 104° |
| 2026-04-23 03:16 | 42.11230 | 35.68113 | 39032 ft | 508 kts | 104° |
| 2026-04-23 03:16 | 42.09173 | 35.82130 | 39029 ft | 510 kts | 104° |
| 2026-04-23 03:17 | 42.07788 | 35.91483 | 39029 ft | 511 kts | 104° |
| 2026-04-23 03:17 | 42.06389 | 36.00856 | 39028 ft | 511 kts | 104° |
| 2026-04-23 03:18 | 42.04984 | 36.10235 | 39030 ft | 512 kts | 104° |
| 2026-04-23 03:18 | 42.03565 | 36.19634 | 39028 ft | 514 kts | 104° |
| 2026-04-23 03:19 | 42.02127 | 36.29047 | 39029 ft | 513 kts | 104° |
| 2026-04-23 03:19 | 42.00698 | 36.38452 | 39029 ft | 513 kts | 104° |
| 2026-04-23 03:20 | 41.99265 | 36.47777 | 39035 ft | 513 kts | 104° |
| 2026-04-23 03:20 | 41.97819 | 36.57168 | 39029 ft | 513 kts | 104° |
| 2026-04-23 03:21 | 41.96367 | 36.66543 | 39026 ft | 513 kts | 104° |
| 2026-04-23 03:21 | 41.94893 | 36.75933 | 39027 ft | 513 kts | 104° |
| 2026-04-23 03:22 | 41.93669 | 36.83721 | 39020 ft | 514 kts | 104° |
| 2026-04-23 03:22 | 41.92191 | 36.93134 | 39025 ft | 514 kts | 104° |
| 2026-04-23 03:23 | 41.90688 | 37.02507 | 39023 ft | 513 kts | 106° |
| 2026-04-23 03:23 | 41.88249 | 37.11450 | 39028 ft | 509 kts | 117° |
| 2026-04-23 03:24 | 41.85465 | 37.20180 | 39022 ft | 510 kts | 117° |
| 2026-04-23 03:24 | 41.82690 | 37.28955 | 39028 ft | 511 kts | 116° |
| 2026-04-23 03:25 | 41.79919 | 37.37730 | 39029 ft | 511 kts | 116° |
| 2026-04-23 03:25 | 41.77157 | 37.46436 | 39017 ft | 512 kts | 116° |
| 2026-04-23 03:26 | 41.74358 | 37.55215 | 39029 ft | 511 kts | 116° |
| 2026-04-23 03:26 | 41.71557 | 37.63966 | 39028 ft | 511 kts | 117° |
| 2026-04-23 03:27 | 41.68719 | 37.72689 | 39021 ft | 511 kts | 117° |
| 2026-04-23 03:27 | 41.65906 | 37.81408 | 39022 ft | 510 kts | 116° |
| 2026-04-23 03:28 | 41.63103 | 37.90104 | 39024 ft | 510 kts | 116° |
| 2026-04-23 03:28 | 41.60290 | 37.98801 | 39025 ft | 510 kts | 117° |
| 2026-04-23 03:29 | 41.57477 | 38.07468 | 39021 ft | 508 kts | 117° |
| 2026-04-23 03:29 | 41.54659 | 38.16125 | 39021 ft | 508 kts | 117° |
| 2026-04-23 03:30 | 41.51852 | 38.24720 | 39020 ft | 508 kts | 117° |
| 2026-04-23 03:30 | 41.49025 | 38.33350 | 39014 ft | 507 kts | 117° |
| 2026-04-23 03:31 | 41.46191 | 38.41971 | 39018 ft | 507 kts | 117° |
| 2026-04-23 03:31 | 41.43353 | 38.50580 | 39022 ft | 505 kts | 117° |
| 2026-04-23 03:32 | 41.40523 | 38.59139 | 39006 ft | 504 kts | 117° |
| 2026-04-23 03:32 | 41.37691 | 38.67677 | 39020 ft | 503 kts | 117° |
| 2026-04-23 03:33 | 41.34851 | 38.76212 | 39023 ft | 503 kts | 117° |
| 2026-04-23 03:33 | 41.32032 | 38.84742 | 39005 ft | 504 kts | 117° |
| 2026-04-23 03:34 | 41.29268 | 38.93226 | 39030 ft | 504 kts | 117° |
| 2026-04-23 03:34 | 41.26464 | 39.01778 | 39030 ft | 504 kts | 117° |
| 2026-04-23 03:35 | 41.23654 | 39.10311 | 39033 ft | 504 kts | 117° |
| 2026-04-23 03:35 | 41.20813 | 39.18811 | 39025 ft | 502 kts | 118° |
| 2026-04-23 03:36 | 41.17880 | 39.27234 | 39040 ft | 502 kts | 118° |
| 2026-04-23 03:36 | 41.14942 | 39.35635 | 39043 ft | 502 kts | 118° |
| 2026-04-23 03:37 | 41.11999 | 39.44030 | 39038 ft | 502 kts | 119° |
| 2026-04-23 03:37 | 41.09051 | 39.52415 | 39036 ft | 502 kts | 119° |
| 2026-04-23 03:38 | 41.06111 | 39.60751 | 39032 ft | 502 kts | 119° |
| 2026-04-23 03:38 | 41.03163 | 39.69088 | 39016 ft | 500 kts | 119° |
| 2026-04-23 03:39 | 41.00294 | 39.77482 | 39018 ft | 501 kts | 113° |
| 2026-04-23 03:39 | 40.99451 | 39.81982 | 39015 ft | 508 kts | 99° |
| 2026-04-23 03:39 | 40.99357 | 39.86674 | 39029 ft | 511 kts | 90° |
| 2026-04-23 03:40 | 40.99183 | 39.96072 | 39027 ft | 510 kts | 95° |
| 2026-04-23 03:40 | 40.98886 | 40.05401 | 39019 ft | 509 kts | 94° |
| 2026-04-23 03:41 | 40.98645 | 40.14754 | 39022 ft | 508 kts | 94° |
| 2026-04-23 03:41 | 40.98394 | 40.24076 | 39017 ft | 507 kts | 95° |
| 2026-04-23 03:42 | 40.97950 | 40.33389 | 39013 ft | 507 kts | 96° |
| 2026-04-23 03:42 | 40.97632 | 40.42717 | 39016 ft | 507 kts | 95° |
| 2026-04-23 03:43 | 40.97371 | 40.52086 | 39005 ft | 509 kts | 95° |
| 2026-04-23 03:43 | 40.97096 | 40.61453 | 39005 ft | 509 kts | 95° |
| 2026-04-23 03:44 | 40.96809 | 40.70838 | 39007 ft | 510 kts | 95° |
| 2026-04-23 03:44 | 40.96517 | 40.80161 | 39005 ft | 509 kts | 95° |
| 2026-04-23 03:45 | 40.96216 | 40.89531 | 38998 ft | 509 kts | 95° |
| 2026-04-23 03:45 | 40.95907 | 40.98874 | 38994 ft | 508 kts | 95° |
| 2026-04-23 03:46 | 40.95591 | 41.08222 | 38978 ft | 508 kts | 95° |
| 2026-04-23 03:46 | 40.95269 | 41.17519 | 38962 ft | 509 kts | 95° |
| 2026-04-23 03:47 | 40.94939 | 41.26868 | 38920 ft | 506 kts | 95° |
| 2026-04-23 03:47 | 40.94602 | 41.36178 | 38921 ft | 506 kts | 95° |
| 2026-04-23 03:48 | 40.94256 | 41.45490 | 38926 ft | 507 kts | 95° |
| 2026-04-23 03:48 | 40.93903 | 41.54800 | 38929 ft | 507 kts | 95° |
| 2026-04-23 03:49 | 40.93545 | 41.64097 | 38921 ft | 506 kts | 96° |
| 2026-04-23 03:49 | 40.93177 | 41.73402 | 38929 ft | 506 kts | 95° |
| 2026-04-23 03:50 | 40.92802 | 41.82710 | 38929 ft | 507 kts | 96° |
| 2026-04-23 03:50 | 40.92422 | 41.91971 | 38931 ft | 507 kts | 96° |
| 2026-04-23 03:51 | 40.92032 | 42.01302 | 38915 ft | 507 kts | 96° |
| 2026-04-23 03:51 | 40.91640 | 42.10604 | 38897 ft | 507 kts | 95° |
| 2026-04-23 03:52 | 40.91429 | 42.19905 | 38905 ft | 506 kts | 95° |
| 2026-04-23 03:52 | 40.91073 | 42.29201 | 38906 ft | 505 kts | 96° |
| 2026-04-23 03:53 | 40.90663 | 42.38461 | 38912 ft | 505 kts | 96° |
| 2026-04-23 03:53 | 40.90241 | 42.47671 | 38909 ft | 505 kts | 96° |
| 2026-04-23 03:54 | 40.89809 | 42.56925 | 38896 ft | 502 kts | 96° |
| 2026-04-23 03:54 | 40.89200 | 42.66123 | 38910 ft | 501 kts | 98° |
| 2026-04-23 03:55 | 40.88641 | 42.75317 | 38920 ft | 502 kts | 97° |
| 2026-04-23 03:55 | 40.88190 | 42.84520 | 38920 ft | 502 kts | 96° |
| 2026-04-23 03:56 | 40.87734 | 42.93754 | 38919 ft | 503 kts | 97° |
| 2026-04-23 03:56 | 40.87373 | 43.02942 | 38934 ft | 504 kts | 95° |
| 2026-04-23 03:57 | 40.87067 | 43.12198 | 38945 ft | 503 kts | 96° |
| 2026-04-23 03:57 | 40.86598 | 43.21420 | 38947 ft | 503 kts | 97° |
| 2026-04-23 03:58 | 40.86099 | 43.30642 | 38959 ft | 503 kts | 97° |
| 2026-04-23 03:58 | 40.85601 | 43.39856 | 38962 ft | 503 kts | 97° |
| 2026-04-23 03:59 | 40.85097 | 43.49067 | 38977 ft | 503 kts | 97° |
| 2026-04-23 03:59 | 40.84592 | 43.58211 | 38978 ft | 503 kts | 97° |
| 2026-04-23 04:00 | 40.84049 | 43.67429 | 38980 ft | 502 kts | 99° |
| 2026-04-23 04:00 | 40.83033 | 43.76514 | 38970 ft | 498 kts | 103° |
| 2026-04-23 04:01 | 40.81871 | 43.85524 | 38979 ft | 498 kts | 101° |
| 2026-04-23 04:01 | 40.81022 | 43.94611 | 38967 ft | 498 kts | 102° |
| 2026-04-23 04:02 | 40.79896 | 44.03553 | 38967 ft | 496 kts | 103° |
| 2026-04-23 04:02 | 40.78770 | 44.12560 | 38941 ft | 498 kts | 103° |
| 2026-04-23 04:03 | 40.77684 | 44.21605 | 38932 ft | 499 kts | 103° |
| 2026-04-23 04:03 | 40.76587 | 44.30640 | 38933 ft | 500 kts | 103° |
| 2026-04-23 04:04 | 40.75477 | 44.39703 | 38912 ft | 499 kts | 103° |
| 2026-04-23 04:04 | 40.74367 | 44.48724 | 38886 ft | 498 kts | 103° |
| 2026-04-23 04:05 | 40.73239 | 44.57752 | 38903 ft | 498 kts | 103° |
| 2026-04-23 04:05 | 40.72118 | 44.66767 | 38886 ft | 499 kts | 103° |
| 2026-04-23 04:06 | 40.70990 | 44.75806 | 38890 ft | 499 kts | 103° |
| 2026-04-23 04:06 | 40.69858 | 44.84781 | 38891 ft | 499 kts | 103° |
| 2026-04-23 04:07 | 40.68687 | 44.93810 | 38878 ft | 501 kts | 103° |
| 2026-04-23 04:07 | 40.67521 | 45.02874 | 38877 ft | 501 kts | 103° |
| 2026-04-23 04:08 | 40.66357 | 45.11941 | 38875 ft | 501 kts | 103° |
| 2026-04-23 04:08 | 40.65375 | 45.19475 | 38879 ft | 501 kts | 103° |
| 2026-04-23 04:09 | 40.64203 | 45.28501 | 38864 ft | 497 kts | 103° |
| 2026-04-23 04:09 | 40.62850 | 45.38902 | 38862 ft | 495 kts | 103° |
| 2026-04-23 04:10 | 40.61854 | 45.46384 | 38857 ft | 496 kts | 103° |
| 2026-04-23 04:10 | 40.60675 | 45.55338 | 38863 ft | 496 kts | 103° |
| 2026-04-23 04:11 | 40.59488 | 45.64251 | 38853 ft | 493 kts | 103° |
| 2026-04-23 04:11 | 40.58292 | 45.73141 | 38857 ft | 494 kts | 103° |
| 2026-04-23 04:12 | 40.57088 | 45.82049 | 38860 ft | 494 kts | 103° |
| 2026-04-23 04:12 | 40.55879 | 45.90865 | 38867 ft | 494 kts | 103° |
| 2026-04-23 04:13 | 40.54657 | 45.99778 | 38855 ft | 496 kts | 103° |
| 2026-04-23 04:13 | 40.53427 | 46.08701 | 38851 ft | 496 kts | 103° |
| 2026-04-23 04:14 | 40.52192 | 46.17620 | 38846 ft | 496 kts | 103° |
| 2026-04-23 04:14 | 40.50943 | 46.26547 | 38850 ft | 496 kts | 103° |
| 2026-04-23 04:15 | 40.49696 | 46.35460 | 38839 ft | 497 kts | 104° |
| 2026-04-23 04:16 | 40.47796 | 46.48923 | 38843 ft | 500 kts | 104° |
| 2026-04-23 04:16 | 40.46515 | 46.57896 | 38839 ft | 500 kts | 104° |
| 2026-04-23 04:17 | 40.45233 | 46.66866 | 38839 ft | 500 kts | 104° |
| 2026-04-23 04:17 | 40.43949 | 46.75848 | 38832 ft | 500 kts | 104° |
| 2026-04-23 04:18 | 40.42655 | 46.84773 | 38834 ft | 501 kts | 104° |
| 2026-04-23 04:18 | 40.41345 | 46.93748 | 38838 ft | 501 kts | 104° |
| 2026-04-23 04:19 | 40.40028 | 47.02780 | 38837 ft | 501 kts | 104° |
| 2026-04-23 04:19 | 40.38727 | 47.11684 | 38840 ft | 501 kts | 104° |
| 2026-04-23 04:20 | 40.37404 | 47.20657 | 38837 ft | 501 kts | 104° |
| 2026-04-23 04:20 | 40.36068 | 47.29625 | 38840 ft | 501 kts | 104° |
| 2026-04-23 04:21 | 40.34727 | 47.38575 | 38838 ft | 501 kts | 104° |
| 2026-04-23 04:21 | 40.33379 | 47.47525 | 38841 ft | 501 kts | 104° |
| 2026-04-23 04:22 | 40.32020 | 47.56486 | 38845 ft | 501 kts | 104° |
| 2026-04-23 04:22 | 40.30657 | 47.65443 | 38843 ft | 501 kts | 104° |
| 2026-04-23 04:23 | 40.29287 | 47.74406 | 38845 ft | 501 kts | 104° |
| 2026-04-23 04:23 | 40.27920 | 47.83301 | 38841 ft | 501 kts | 104° |
| 2026-04-23 04:24 | 40.26534 | 47.92256 | 38841 ft | 501 kts | 104° |
| 2026-04-23 04:24 | 40.25143 | 48.01210 | 38851 ft | 501 kts | 105° |
| 2026-04-23 04:25 | 40.23743 | 48.10145 | 38849 ft | 501 kts | 105° |
| 2026-04-23 04:25 | 40.22339 | 48.19013 | 38844 ft | 500 kts | 105° |
| 2026-04-23 04:26 | 40.20935 | 48.27929 | 38851 ft | 500 kts | 105° |
| 2026-04-23 04:26 | 40.19524 | 48.36841 | 38853 ft | 501 kts | 105° |
| 2026-04-23 04:27 | 40.18093 | 48.45765 | 38854 ft | 501 kts | 105° |
| 2026-04-23 04:27 | 40.16658 | 48.54714 | 38853 ft | 503 kts | 105° |
| 2026-04-23 04:28 | 40.14488 | 48.68150 | 38853 ft | 503 kts | 105° |
| 2026-04-23 04:28 | 40.13032 | 48.77085 | 38857 ft | 503 kts | 105° |
| 2026-04-23 04:29 | 40.11572 | 48.86026 | 38863 ft | 504 kts | 105° |
| 2026-04-23 04:29 | 40.10100 | 48.94995 | 38865 ft | 504 kts | 105° |
| 2026-04-23 04:30 | 40.08625 | 49.03902 | 38862 ft | 505 kts | 106° |
| 2026-04-23 04:30 | 40.07137 | 49.12864 | 38873 ft | 505 kts | 106° |
| 2026-04-23 04:31 | 40.05639 | 49.21835 | 38866 ft | 505 kts | 106° |
| 2026-04-23 04:31 | 40.04137 | 49.30781 | 38877 ft | 504 kts | 106° |
| 2026-04-23 04:32 | 40.02632 | 49.39709 | 38878 ft | 504 kts | 106° |
| 2026-04-23 04:32 | 40.01121 | 49.48605 | 38879 ft | 504 kts | 106° |
| 2026-04-23 04:33 | 39.99608 | 49.57477 | 38875 ft | 504 kts | 106° |
| 2026-04-23 04:33 | 39.98071 | 49.66465 | 38882 ft | 504 kts | 106° |
| 2026-04-23 04:34 | 39.96541 | 49.75312 | 38884 ft | 504 kts | 106° |
| 2026-04-23 04:34 | 39.94996 | 49.84239 | 38887 ft | 504 kts | 106° |
| 2026-04-23 04:35 | 39.93454 | 49.93162 | 38880 ft | 503 kts | 106° |
| 2026-04-23 04:35 | 39.91908 | 50.02041 | 38889 ft | 503 kts | 106° |
| 2026-04-23 04:36 | 39.90346 | 50.10925 | 38893 ft | 503 kts | 106° |
| 2026-04-23 04:36 | 39.88781 | 50.19803 | 38894 ft | 502 kts | 107° |
| 2026-04-23 04:37 | 39.87213 | 50.28651 | 38890 ft | 502 kts | 107° |
| 2026-04-23 04:37 | 39.85646 | 50.37459 | 38897 ft | 502 kts | 107° |
| 2026-04-23 04:38 | 39.84065 | 50.46308 | 38902 ft | 502 kts | 107° |
| 2026-04-23 04:38 | 39.82476 | 50.55147 | 38901 ft | 502 kts | 107° |
| 2026-04-23 04:39 | 39.80879 | 50.63983 | 38901 ft | 502 kts | 107° |
| 2026-04-23 04:39 | 39.79267 | 50.72832 | 38907 ft | 502 kts | 107° |
| 2026-04-23 04:40 | 39.77653 | 50.81690 | 38906 ft | 504 kts | 107° |
| 2026-04-23 04:40 | 39.76033 | 50.90561 | 38905 ft | 504 kts | 107° |
| 2026-04-23 04:41 | 39.74400 | 50.99420 | 38894 ft | 503 kts | 107° |
| 2026-04-23 04:41 | 39.72771 | 51.08256 | 38905 ft | 503 kts | 107° |
| 2026-04-23 04:42 | 39.71127 | 51.17103 | 38910 ft | 503 kts | 107° |
| 2026-04-23 04:42 | 39.69494 | 51.25888 | 38916 ft | 503 kts | 107° |
| 2026-04-23 04:43 | 39.67841 | 51.34733 | 38913 ft | 504 kts | 107° |
| 2026-04-23 04:43 | 39.66178 | 51.43581 | 38920 ft | 505 kts | 107° |
| 2026-04-23 04:44 | 39.64623 | 51.52483 | 38921 ft | 506 kts | 103° |
| 2026-04-23 04:44 | 39.63377 | 51.61419 | 38920 ft | 507 kts | 103° |
| 2026-04-23 04:45 | 39.62121 | 51.70413 | 38919 ft | 506 kts | 103° |
| 2026-04-23 04:45 | 39.60851 | 51.79396 | 38926 ft | 506 kts | 103° |
| 2026-04-23 04:46 | 39.59575 | 51.88378 | 38929 ft | 507 kts | 103° |
| 2026-04-23 04:46 | 39.58288 | 51.97377 | 38930 ft | 507 kts | 103° |
| 2026-04-23 04:47 | 39.56995 | 52.06372 | 38926 ft | 507 kts | 103° |
| 2026-04-23 04:47 | 39.55695 | 52.15373 | 38932 ft | 508 kts | 103° |
| 2026-04-23 04:48 | 39.54392 | 52.24353 | 38931 ft | 507 kts | 103° |
| 2026-04-23 04:48 | 39.53079 | 52.33335 | 38942 ft | 507 kts | 103° |
| 2026-04-23 04:49 | 39.51767 | 52.42255 | 38938 ft | 507 kts | 103° |
| 2026-04-23 04:49 | 39.50438 | 52.51234 | 38942 ft | 507 kts | 104° |
| 2026-04-23 04:50 | 39.49103 | 52.60193 | 38950 ft | 507 kts | 104° |
| 2026-04-23 04:50 | 39.47765 | 52.69166 | 38950 ft | 507 kts | 104° |
| 2026-04-23 04:51 | 39.46417 | 52.78128 | 38936 ft | 507 kts | 104° |
| 2026-04-23 04:51 | 39.45065 | 52.87097 | 38947 ft | 507 kts | 104° |
| 2026-04-23 04:52 | 39.43716 | 52.95969 | 38947 ft | 506 kts | 104° |
| 2026-04-23 04:52 | 39.42347 | 53.04918 | 38953 ft | 506 kts | 104° |
| 2026-04-23 04:53 | 39.40977 | 53.13841 | 38945 ft | 506 kts | 104° |
| 2026-04-23 04:53 | 39.39598 | 53.22763 | 38956 ft | 506 kts | 104° |
| 2026-04-23 04:54 | 39.38225 | 53.31615 | 38962 ft | 506 kts | 104° |
| 2026-04-23 04:54 | 39.36831 | 53.40538 | 38956 ft | 506 kts | 104° |
| 2026-04-23 04:55 | 39.35438 | 53.49433 | 38947 ft | 504 kts | 104° |
| 2026-04-23 04:55 | 39.34039 | 53.58303 | 38969 ft | 504 kts | 104° |
| 2026-04-23 04:56 | 39.32870 | 53.65680 | 38967 ft | 504 kts | 104° |
| 2026-04-23 04:56 | 39.31461 | 53.74543 | 38975 ft | 504 kts | 104° |
| 2026-04-23 04:57 | 39.30043 | 53.83396 | 38977 ft | 504 kts | 104° |
| 2026-04-23 04:57 | 39.28617 | 53.92255 | 38973 ft | 503 kts | 104° |
| 2026-04-23 04:58 | 39.27189 | 54.01096 | 38979 ft | 503 kts | 104° |
| 2026-04-23 04:58 | 39.25754 | 54.09933 | 38979 ft | 503 kts | 104° |
| 2026-04-23 04:59 | 39.24307 | 54.18777 | 38980 ft | 503 kts | 104° |
| 2026-04-23 04:59 | 39.22860 | 54.27610 | 38985 ft | 503 kts | 104° |
| 2026-04-23 05:00 | 39.21403 | 54.36441 | 38992 ft | 503 kts | 104° |
| 2026-04-23 05:00 | 39.19950 | 54.45198 | 38997 ft | 503 kts | 105° |
| 2026-04-23 05:01 | 39.18482 | 54.54010 | 38995 ft | 503 kts | 105° |
| 2026-04-23 05:01 | 39.17003 | 54.62822 | 38984 ft | 502 kts | 105° |
| 2026-04-23 05:02 | 39.15523 | 54.71628 | 38990 ft | 502 kts | 105° |
| 2026-04-23 05:02 | 39.14032 | 54.80433 | 38995 ft | 502 kts | 105° |
| 2026-04-23 05:03 | 39.12518 | 54.89224 | 38994 ft | 502 kts | 105° |
| 2026-04-23 05:03 | 39.11038 | 54.97952 | 38987 ft | 502 kts | 105° |
| 2026-04-23 05:04 | 39.09535 | 55.06739 | 38997 ft | 503 kts | 105° |
| 2026-04-23 05:04 | 39.08004 | 55.15527 | 38997 ft | 503 kts | 105° |
| 2026-04-23 05:05 | 39.06472 | 55.24313 | 38998 ft | 503 kts | 105° |
| 2026-04-23 05:05 | 39.04937 | 55.33111 | 38985 ft | 504 kts | 105° |
| 2026-04-23 05:06 | 39.03412 | 55.41922 | 39005 ft | 504 kts | 105° |
| 2026-04-23 05:06 | 39.01875 | 55.50721 | 39006 ft | 504 kts | 105° |
| 2026-04-23 05:07 | 39.00320 | 55.59509 | 39011 ft | 504 kts | 105° |
| 2026-04-23 05:07 | 38.98770 | 55.68260 | 39014 ft | 504 kts | 105° |
| 2026-04-23 05:08 | 38.97207 | 55.77055 | 39007 ft | 504 kts | 106° |
| 2026-04-23 05:08 | 38.95638 | 55.85835 | 39014 ft | 504 kts | 106° |
| 2026-04-23 05:09 | 38.94060 | 55.94621 | 39015 ft | 504 kts | 106° |
| 2026-04-23 05:09 | 38.92477 | 56.03401 | 39020 ft | 504 kts | 106° |
| 2026-04-23 05:10 | 38.90888 | 56.12170 | 39010 ft | 504 kts | 106° |
| 2026-04-23 05:10 | 38.89288 | 56.20948 | 39011 ft | 504 kts | 106° |
| 2026-04-23 05:11 | 38.87687 | 56.29704 | 39011 ft | 504 kts | 106° |
| 2026-04-23 05:11 | 38.86078 | 56.38454 | 39008 ft | 504 kts | 106° |
| 2026-04-23 05:12 | 38.84462 | 56.47224 | 38999 ft | 505 kts | 106° |
| 2026-04-23 05:12 | 38.82846 | 56.55941 | 39004 ft | 505 kts | 106° |
| 2026-04-23 05:13 | 38.81216 | 56.64704 | 39011 ft | 505 kts | 106° |
| 2026-04-23 05:14 | 38.78753 | 56.77856 | 39012 ft | 506 kts | 107° |
| 2026-04-23 05:14 | 38.77102 | 56.86612 | 39005 ft | 506 kts | 107° |
| 2026-04-23 05:15 | 38.75443 | 56.95388 | 39021 ft | 506 kts | 107° |
| 2026-04-23 05:15 | 38.73772 | 57.04162 | 39016 ft | 506 kts | 107° |
| 2026-04-23 05:16 | 38.72094 | 57.12925 | 39015 ft | 506 kts | 107° |
| 2026-04-23 05:16 | 38.70420 | 57.21628 | 39000 ft | 507 kts | 107° |
| 2026-04-23 05:17 | 38.68743 | 57.30395 | 39014 ft | 507 kts | 107° |
| 2026-04-23 05:17 | 38.67056 | 57.39176 | 39023 ft | 507 kts | 107° |
| 2026-04-23 05:18 | 38.65352 | 57.47934 | 39011 ft | 507 kts | 107° |
| 2026-04-23 05:18 | 38.63645 | 57.56680 | 39026 ft | 507 kts | 107° |
| 2026-04-23 05:19 | 38.61882 | 57.65416 | 39011 ft | 506 kts | 110° |
| 2026-04-23 05:19 | 38.59248 | 57.73626 | 39020 ft | 501 kts | 118° |
| 2026-04-23 05:20 | 38.56385 | 57.81753 | 39019 ft | 501 kts | 118° |
| 2026-04-23 05:20 | 38.53533 | 57.89884 | 39019 ft | 501 kts | 118° |
| 2026-04-23 05:21 | 38.50673 | 57.97997 | 39019 ft | 501 kts | 118° |
| 2026-04-23 05:21 | 38.47804 | 58.06114 | 39018 ft | 501 kts | 118° |
| 2026-04-23 05:22 | 38.44949 | 58.14192 | 39017 ft | 501 kts | 118° |
| 2026-04-23 05:22 | 38.42088 | 58.22284 | 38999 ft | 501 kts | 118° |
| 2026-04-23 05:23 | 38.39498 | 58.30559 | 39019 ft | 506 kts | 109° |
| 2026-04-23 05:23 | 38.37785 | 58.39217 | 39022 ft | 507 kts | 107° |
| 2026-04-23 05:24 | 38.36068 | 58.47947 | 39020 ft | 507 kts | 108° |
| 2026-04-23 05:24 | 38.34325 | 58.56662 | 39022 ft | 507 kts | 108° |
| 2026-04-23 05:25 | 38.32578 | 58.65369 | 39020 ft | 507 kts | 108° |
| 2026-04-23 05:25 | 38.30823 | 58.74070 | 39029 ft | 507 kts | 108° |
| 2026-04-23 05:26 | 38.29072 | 58.82724 | 39027 ft | 507 kts | 108° |
| 2026-04-23 05:26 | 38.27288 | 58.91477 | 39030 ft | 507 kts | 108° |
| 2026-04-23 05:27 | 38.25524 | 59.00109 | 39010 ft | 507 kts | 108° |
| 2026-04-23 05:27 | 38.23741 | 59.08796 | 39028 ft | 507 kts | 109° |
| 2026-04-23 05:28 | 38.21956 | 59.17470 | 39032 ft | 507 kts | 109° |
| 2026-04-23 05:28 | 38.20155 | 59.26168 | 39038 ft | 507 kts | 109° |
| 2026-04-23 05:29 | 38.18364 | 59.34793 | 39038 ft | 507 kts | 109° |
| 2026-04-23 05:29 | 38.16555 | 59.43471 | 39026 ft | 508 kts | 109° |
| 2026-04-23 05:30 | 38.14739 | 59.52143 | 39036 ft | 508 kts | 109° |
| 2026-04-23 05:30 | 38.12916 | 59.60810 | 39040 ft | 508 kts | 109° |
| 2026-04-23 05:31 | 38.11087 | 59.69476 | 39036 ft | 508 kts | 109° |
| 2026-04-23 05:31 | 38.09264 | 59.78081 | 39045 ft | 508 kts | 109° |
| 2026-04-23 05:32 | 38.07425 | 59.86740 | 39034 ft | 507 kts | 109° |
| 2026-04-23 05:32 | 38.05578 | 59.95387 | 39047 ft | 507 kts | 110° |
| 2026-04-23 05:33 | 38.03722 | 60.04023 | 39045 ft | 507 kts | 110° |
| 2026-04-23 05:33 | 38.01866 | 60.12652 | 39049 ft | 507 kts | 110° |
| 2026-04-23 05:34 | 38.00002 | 60.21284 | 39050 ft | 507 kts | 110° |
| 2026-04-23 05:34 | 37.98122 | 60.29919 | 39054 ft | 508 kts | 110° |
| 2026-04-23 05:35 | 37.96247 | 60.38490 | 39050 ft | 508 kts | 110° |
| 2026-04-23 05:35 | 37.94346 | 60.47172 | 39051 ft | 508 kts | 110° |
| 2026-04-23 05:36 | 37.92450 | 60.55796 | 39056 ft | 509 kts | 110° |
| 2026-04-23 05:36 | 37.90553 | 60.64375 | 39059 ft | 509 kts | 110° |
| 2026-04-23 05:37 | 37.88639 | 60.73007 | 39057 ft | 509 kts | 110° |
| 2026-04-23 05:37 | 37.86714 | 60.81652 | 39060 ft | 510 kts | 111° |
| 2026-04-23 05:38 | 37.84784 | 60.90296 | 39060 ft | 510 kts | 111° |
| 2026-04-23 05:38 | 37.82849 | 60.98925 | 39062 ft | 510 kts | 111° |
| 2026-04-23 05:39 | 37.80900 | 61.07572 | 39046 ft | 511 kts | 111° |
| 2026-04-23 05:39 | 37.78961 | 61.16158 | 39063 ft | 511 kts | 111° |
| 2026-04-23 05:40 | 37.77001 | 61.24808 | 39066 ft | 512 kts | 111° |
| 2026-04-23 05:40 | 37.75027 | 61.33456 | 39060 ft | 512 kts | 111° |
| 2026-04-23 05:41 | 37.73051 | 61.42111 | 39066 ft | 512 kts | 111° |
| 2026-04-23 05:41 | 37.71070 | 61.50752 | 39053 ft | 512 kts | 111° |
| 2026-04-23 05:42 | 37.69079 | 61.59390 | 39061 ft | 512 kts | 111° |
| 2026-04-23 05:42 | 37.67080 | 61.68013 | 39066 ft | 512 kts | 111° |
| 2026-04-23 05:43 | 37.65415 | 61.75184 | 39068 ft | 512 kts | 111° |
| 2026-04-23 05:43 | 37.63410 | 61.83800 | 39067 ft | 512 kts | 111° |
| 2026-04-23 05:44 | 37.60635 | 61.91900 | 39076 ft | 495 kts | 131° |
| 2026-04-23 05:44 | 37.56555 | 61.98850 | 39075 ft | 491 kts | 134° |
| 2026-04-23 05:45 | 37.52442 | 62.05732 | 39080 ft | 492 kts | 134° |
| 2026-04-23 05:45 | 37.48378 | 62.12621 | 39078 ft | 492 kts | 134° |
| 2026-04-23 05:46 | 37.44303 | 62.19546 | 39069 ft | 492 kts | 133° |
| 2026-04-23 05:46 | 37.40236 | 62.26456 | 39069 ft | 491 kts | 134° |
| 2026-04-23 05:47 | 37.36151 | 62.33356 | 39071 ft | 491 kts | 134° |
| 2026-04-23 05:47 | 37.32061 | 62.40247 | 39070 ft | 491 kts | 134° |
| 2026-04-23 05:48 | 37.27968 | 62.47129 | 39061 ft | 491 kts | 134° |
| 2026-04-23 05:48 | 37.23901 | 62.53957 | 39058 ft | 491 kts | 134° |
| 2026-04-23 05:49 | 37.19809 | 62.60809 | 39070 ft | 491 kts | 134° |
| 2026-04-23 05:49 | 37.15708 | 62.67662 | 39039 ft | 490 kts | 134° |
| 2026-04-23 05:50 | 37.11613 | 62.74492 | 39053 ft | 490 kts | 134° |
| 2026-04-23 05:50 | 37.07505 | 62.81327 | 39054 ft | 490 kts | 134° |
| 2026-04-23 05:51 | 37.03399 | 62.88146 | 39058 ft | 489 kts | 134° |
| 2026-04-23 05:51 | 36.99293 | 62.94937 | 39040 ft | 489 kts | 134° |
| 2026-04-23 05:52 | 36.95208 | 63.01690 | 39059 ft | 490 kts | 134° |
| 2026-04-23 05:52 | 36.91102 | 63.08484 | 39064 ft | 490 kts | 134° |
| 2026-04-23 05:53 | 36.86986 | 63.15270 | 39065 ft | 490 kts | 135° |
| 2026-04-23 05:53 | 36.82866 | 63.22042 | 39052 ft | 490 kts | 135° |
| 2026-04-23 05:54 | 36.78740 | 63.28814 | 39064 ft | 490 kts | 135° |
| 2026-04-23 05:54 | 36.74609 | 63.35579 | 39063 ft | 490 kts | 135° |
| 2026-04-23 05:55 | 36.70471 | 63.42341 | 39061 ft | 490 kts | 135° |
| 2026-04-23 05:55 | 36.66335 | 63.49082 | 39051 ft | 488 kts | 135° |
| 2026-04-23 05:56 | 36.62214 | 63.55801 | 39065 ft | 488 kts | 135° |
| 2026-04-23 05:56 | 36.58087 | 63.62507 | 39067 ft | 488 kts | 135° |
| 2026-04-23 05:57 | 36.53979 | 63.69169 | 39032 ft | 488 kts | 135° |
| 2026-04-23 05:57 | 36.49843 | 63.75858 | 39053 ft | 488 kts | 135° |
| 2026-04-23 05:58 | 36.45699 | 63.82546 | 39062 ft | 487 kts | 135° |
| 2026-04-23 05:58 | 36.41556 | 63.89219 | 39063 ft | 487 kts | 135° |
| 2026-04-23 05:59 | 36.37419 | 63.95877 | 39047 ft | 487 kts | 135° |
| 2026-04-23 05:59 | 36.33294 | 64.02500 | 39066 ft | 488 kts | 135° |
| 2026-04-23 06:00 | 36.29145 | 64.09148 | 39060 ft | 485 kts | 135° |
| 2026-04-23 06:00 | 36.25011 | 64.15764 | 39070 ft | 486 kts | 135° |
| 2026-04-23 06:01 | 36.20864 | 64.22380 | 39054 ft | 485 kts | 135° |
| 2026-04-23 06:01 | 36.16730 | 64.28979 | 39064 ft | 486 kts | 134° |
| 2026-04-23 06:02 | 36.12722 | 64.35714 | 39073 ft | 487 kts | 133° |
| 2026-04-23 06:02 | 36.08721 | 64.42465 | 39067 ft | 486 kts | 133° |
| 2026-04-23 06:03 | 36.04717 | 64.49195 | 39072 ft | 486 kts | 134° |
| 2026-04-23 06:03 | 36.00713 | 64.55916 | 39069 ft | 486 kts | 134° |
| 2026-04-23 06:04 | 35.96729 | 64.62586 | 39066 ft | 485 kts | 134° |
| 2026-04-23 06:04 | 35.92713 | 64.69298 | 39069 ft | 485 kts | 134° |
| 2026-04-23 06:05 | 35.88696 | 64.75992 | 39048 ft | 485 kts | 134° |
| 2026-04-23 06:05 | 35.84678 | 64.82678 | 39063 ft | 485 kts | 134° |
| 2026-04-23 06:06 | 35.80647 | 64.89366 | 39081 ft | 486 kts | 134° |
| 2026-04-23 06:06 | 35.76625 | 64.96042 | 39074 ft | 486 kts | 134° |
| 2026-04-23 06:07 | 35.72595 | 65.02712 | 39058 ft | 483 kts | 134° |
| 2026-04-23 06:07 | 35.68583 | 65.09335 | 39068 ft | 483 kts | 134° |
| 2026-04-23 06:08 | 35.64590 | 65.15925 | 39065 ft | 483 kts | 134° |
| 2026-04-23 06:08 | 35.60567 | 65.22542 | 39071 ft | 483 kts | 134° |
| 2026-04-23 06:09 | 35.56530 | 65.29156 | 39074 ft | 483 kts | 134° |
| 2026-04-23 06:09 | 35.52516 | 65.35745 | 39069 ft | 482 kts | 133° |
| 2026-04-23 06:10 | 35.48528 | 65.42268 | 39077 ft | 482 kts | 133° |
| 2026-04-23 06:10 | 35.44510 | 65.48830 | 39079 ft | 481 kts | 133° |
| 2026-04-23 06:11 | 35.40488 | 65.55386 | 39075 ft | 482 kts | 133° |
| 2026-04-23 06:11 | 35.36449 | 65.61951 | 39077 ft | 483 kts | 133° |
| 2026-04-23 06:12 | 35.32412 | 65.68512 | 39096 ft | 481 kts | 133° |
| 2026-04-23 06:12 | 35.26397 | 65.78255 | 39114 ft | 481 kts | 133° |
| 2026-04-23 06:13 | 35.22356 | 65.84787 | 39116 ft | 482 kts | 133° |
| 2026-04-23 06:13 | 35.18305 | 65.91318 | 39116 ft | 481 kts | 133° |
| 2026-04-23 06:14 | 35.14266 | 65.97822 | 39124 ft | 479 kts | 133° |
| 2026-04-23 06:14 | 35.10238 | 66.04301 | 39130 ft | 479 kts | 133° |
| 2026-04-23 06:15 | 35.06197 | 66.10784 | 39127 ft | 478 kts | 133° |
| 2026-04-23 06:15 | 35.02151 | 66.17262 | 39118 ft | 480 kts | 133° |
| 2026-04-23 06:16 | 34.98127 | 66.23677 | 39145 ft | 479 kts | 133° |
| 2026-04-23 06:16 | 34.94084 | 66.30090 | 39129 ft | 476 kts | 133° |
| 2026-04-23 06:17 | 34.90014 | 66.36494 | 39143 ft | 478 kts | 133° |
| 2026-04-23 06:17 | 34.85947 | 66.42897 | 39128 ft | 477 kts | 133° |
| 2026-04-23 06:18 | 34.81878 | 66.49290 | 39135 ft | 478 kts | 133° |
| 2026-04-23 06:18 | 34.77800 | 66.55680 | 39145 ft | 478 kts | 133° |
| 2026-04-23 06:19 | 34.73730 | 66.62042 | 39142 ft | 473 kts | 133° |
| 2026-04-23 06:19 | 34.69684 | 66.68356 | 39141 ft | 472 kts | 133° |
| 2026-04-23 06:20 | 34.65640 | 66.74658 | 39136 ft | 473 kts | 133° |
| 2026-04-23 06:20 | 34.61589 | 66.80962 | 39131 ft | 473 kts | 133° |
| 2026-04-23 06:21 | 34.57534 | 66.87261 | 39132 ft | 474 kts | 133° |
| 2026-04-23 06:21 | 34.53479 | 66.93549 | 39134 ft | 472 kts | 133° |
| 2026-04-23 06:22 | 34.49431 | 66.99796 | 39107 ft | 471 kts | 133° |
| 2026-04-23 06:22 | 34.45383 | 67.06035 | 39126 ft | 475 kts | 133° |
| 2026-04-23 06:23 | 34.41264 | 67.12374 | 39130 ft | 476 kts | 133° |
| 2026-04-23 06:23 | 34.37195 | 67.18626 | 39139 ft | 476 kts | 133° |
| 2026-04-23 06:24 | 34.33111 | 67.24900 | 39131 ft | 473 kts | 134° |
| 2026-04-23 06:24 | 34.29031 | 67.31150 | 39144 ft | 473 kts | 134° |
| 2026-04-23 06:25 | 34.24949 | 67.37386 | 39144 ft | 473 kts | 134° |
| 2026-04-23 06:25 | 34.20870 | 67.43614 | 39141 ft | 472 kts | 134° |
| 2026-04-23 06:26 | 34.16792 | 67.49822 | 39147 ft | 473 kts | 134° |
| 2026-04-23 06:26 | 34.12704 | 67.56037 | 39134 ft | 472 kts | 134° |
| 2026-04-23 06:27 | 34.08608 | 67.62256 | 39145 ft | 473 kts | 134° |
| 2026-04-23 06:27 | 34.04501 | 67.68479 | 39142 ft | 474 kts | 134° |
| 2026-04-23 06:28 | 34.00389 | 67.74702 | 39150 ft | 474 kts | 134° |
| 2026-04-23 06:28 | 33.96292 | 67.80864 | 39145 ft | 473 kts | 135° |
| 2026-04-23 06:29 | 33.92146 | 67.87020 | 39130 ft | 473 kts | 135° |
| 2026-04-23 06:29 | 33.88001 | 67.93160 | 39132 ft | 473 kts | 135° |
| 2026-04-23 06:30 | 33.83849 | 67.99303 | 39118 ft | 473 kts | 135° |
| 2026-04-23 06:30 | 33.80367 | 68.04456 | 39118 ft | 473 kts | 135° |
| 2026-04-23 06:31 | 33.76216 | 68.10584 | 39113 ft | 473 kts | 135° |
| 2026-04-23 06:31 | 33.72056 | 68.16711 | 39098 ft | 473 kts | 135° |
| 2026-04-23 06:32 | 33.67922 | 68.22793 | 39091 ft | 473 kts | 135° |
| 2026-04-23 06:32 | 33.63749 | 68.28920 | 39091 ft | 474 kts | 135° |
| 2026-04-23 06:33 | 33.59576 | 68.35038 | 39077 ft | 474 kts | 135° |
| 2026-04-23 06:33 | 33.55397 | 68.41157 | 39054 ft | 473 kts | 135° |
| 2026-04-23 06:34 | 33.51133 | 68.47177 | 39051 ft | 474 kts | 136° |
| 2026-04-23 06:34 | 33.46853 | 68.53183 | 39041 ft | 474 kts | 136° |
| 2026-04-23 06:35 | 33.42557 | 68.59197 | 39036 ft | 476 kts | 136° |
| 2026-04-23 06:35 | 33.38252 | 68.65227 | 39043 ft | 476 kts | 136° |
| 2026-04-23 06:36 | 33.33944 | 68.71233 | 39028 ft | 476 kts | 136° |
| 2026-04-23 06:36 | 33.29652 | 68.77216 | 39037 ft | 477 kts | 136° |
| 2026-04-23 06:37 | 33.25471 | 68.83383 | 39039 ft | 479 kts | 133° |
| 2026-04-23 06:37 | 33.21412 | 68.89716 | 39043 ft | 479 kts | 132° |
| 2026-04-23 06:38 | 33.17352 | 68.96021 | 39046 ft | 479 kts | 133° |
| 2026-04-23 06:38 | 33.13279 | 69.02334 | 39044 ft | 479 kts | 132° |
| 2026-04-23 06:39 | 33.09214 | 69.08625 | 39052 ft | 479 kts | 132° |
| 2026-04-23 06:39 | 33.05133 | 69.14924 | 39049 ft | 479 kts | 132° |
| 2026-04-23 06:40 | 33.01057 | 69.21203 | 39043 ft | 478 kts | 132° |
| 2026-04-23 06:40 | 32.96991 | 69.27458 | 39027 ft | 478 kts | 132° |
| 2026-04-23 06:41 | 32.92923 | 69.33716 | 39023 ft | 477 kts | 132° |
| 2026-04-23 06:41 | 32.88856 | 69.39963 | 39006 ft | 477 kts | 132° |
| 2026-04-23 06:42 | 32.84779 | 69.46191 | 39006 ft | 477 kts | 132° |
| 2026-04-23 06:42 | 32.80707 | 69.52382 | 39001 ft | 477 kts | 132° |
| 2026-04-23 06:43 | 32.76644 | 69.58559 | 38994 ft | 474 kts | 132° |
| 2026-04-23 06:43 | 32.72582 | 69.64727 | 38987 ft | 473 kts | 132° |
| 2026-04-23 06:44 | 32.68522 | 69.70867 | 38972 ft | 473 kts | 132° |
| 2026-04-23 06:44 | 32.64454 | 69.77024 | 38969 ft | 473 kts | 132° |
| 2026-04-23 06:45 | 32.60387 | 69.83169 | 38954 ft | 473 kts | 132° |
| 2026-04-23 06:45 | 32.56342 | 69.89262 | 38944 ft | 471 kts | 132° |
| 2026-04-23 06:46 | 32.52281 | 69.95367 | 38925 ft | 472 kts | 131° |
| 2026-04-23 06:46 | 32.48217 | 70.01478 | 38923 ft | 472 kts | 132° |
| 2026-04-23 06:47 | 32.44147 | 70.07577 | 38889 ft | 472 kts | 132° |
| 2026-04-23 06:47 | 32.40085 | 70.13671 | 38881 ft | 472 kts | 132° |
| 2026-04-23 06:48 | 32.36034 | 70.19781 | 38874 ft | 472 kts | 131° |
| 2026-04-23 06:48 | 32.32065 | 70.25927 | 38847 ft | 470 kts | 131° |
| 2026-04-23 06:49 | 32.28081 | 70.32071 | 38841 ft | 470 kts | 131° |
| 2026-04-23 06:49 | 32.24105 | 70.38208 | 38830 ft | 470 kts | 131° |
| 2026-04-23 06:50 | 32.20155 | 70.44296 | 38830 ft | 470 kts | 131° |
| 2026-04-23 06:50 | 32.16173 | 70.50421 | 38828 ft | 470 kts | 131° |
| 2026-04-23 06:51 | 32.12191 | 70.56541 | 38813 ft | 469 kts | 131° |
| 2026-04-23 06:51 | 32.08204 | 70.62648 | 38824 ft | 469 kts | 131° |
| 2026-04-23 06:52 | 32.04221 | 70.68742 | 38820 ft | 469 kts | 131° |
| 2026-04-23 06:52 | 32.00236 | 70.74838 | 38823 ft | 469 kts | 131° |
| 2026-04-23 06:53 | 31.96250 | 70.80923 | 38810 ft | 469 kts | 131° |
| 2026-04-23 06:53 | 31.92283 | 70.86970 | 38804 ft | 469 kts | 130° |
| 2026-04-23 06:54 | 31.88938 | 70.93614 | 38808 ft | 473 kts | 121° |
| 2026-04-23 06:54 | 31.85887 | 71.00465 | 38808 ft | 473 kts | 121° |
| 2026-04-23 06:55 | 31.82819 | 71.07307 | 38811 ft | 472 kts | 121° |
| 2026-04-23 06:55 | 31.79740 | 71.14129 | 38807 ft | 472 kts | 121° |
| 2026-04-23 06:56 | 31.76663 | 71.20955 | 38808 ft | 473 kts | 121° |
| 2026-04-23 06:56 | 31.73593 | 71.27742 | 38799 ft | 472 kts | 121° |
| 2026-04-23 06:57 | 31.70512 | 71.34545 | 38805 ft | 472 kts | 121° |
| 2026-04-23 06:57 | 31.67418 | 71.41356 | 38802 ft | 472 kts | 121° |
| 2026-04-23 06:58 | 31.64326 | 71.48161 | 38800 ft | 472 kts | 121° |
| 2026-04-23 06:58 | 31.61230 | 71.54956 | 38800 ft | 472 kts | 121° |
| 2026-04-23 06:59 | 31.58135 | 71.61726 | 38804 ft | 470 kts | 121° |
| 2026-04-23 06:59 | 31.55039 | 71.68492 | 38806 ft | 470 kts | 121° |
| 2026-04-23 07:00 | 31.51937 | 71.75253 | 38804 ft | 471 kts | 121° |
| 2026-04-23 07:00 | 31.48846 | 71.81983 | 38805 ft | 471 kts | 121° |
| 2026-04-23 07:01 | 31.45742 | 71.88741 | 38802 ft | 471 kts | 121° |
| 2026-04-23 07:01 | 31.42630 | 71.95486 | 38798 ft | 470 kts | 122° |
| 2026-04-23 07:02 | 31.39523 | 72.02208 | 38799 ft | 470 kts | 122° |
| 2026-04-23 07:02 | 31.36410 | 72.08937 | 38799 ft | 470 kts | 122° |
| 2026-04-23 07:03 | 31.33310 | 72.15629 | 38791 ft | 470 kts | 122° |
| 2026-04-23 07:03 | 31.30194 | 72.22342 | 38796 ft | 470 kts | 122° |
| 2026-04-23 07:04 | 31.27561 | 72.29347 | 38790 ft | 476 kts | 106° |
| 2026-04-23 07:04 | 31.27125 | 72.33184 | 38793 ft | 480 kts | 93° |
| 2026-04-23 07:04 | 31.27365 | 72.37089 | 38799 ft | 483 kts | 84° |
| 2026-04-23 07:05 | 31.28322 | 72.44882 | 38790 ft | 483 kts | 83° |
| 2026-04-23 07:05 | 31.29218 | 72.52628 | 38790 ft | 483 kts | 84° |
| 2026-04-23 07:06 | 31.30089 | 72.60417 | 38787 ft | 483 kts | 84° |
| 2026-04-23 07:06 | 31.30951 | 72.68175 | 38798 ft | 481 kts | 84° |
| 2026-04-23 07:07 | 31.31804 | 72.75937 | 38805 ft | 481 kts | 84° |
| 2026-04-23 07:07 | 31.32657 | 72.83704 | 38812 ft | 481 kts | 84° |
| 2026-04-23 07:08 | 31.33502 | 72.91458 | 38817 ft | 481 kts | 84° |
| 2026-04-23 07:08 | 31.34341 | 72.99219 | 38817 ft | 479 kts | 84° |
| 2026-04-23 07:09 | 31.35175 | 73.06942 | 38816 ft | 478 kts | 85° |
| 2026-04-23 07:09 | 31.35979 | 73.14609 | 38799 ft | 478 kts | 85° |
| 2026-04-23 07:10 | 31.36614 | 73.22344 | 38793 ft | 477 kts | 91° |
| 2026-04-23 07:10 | 31.36924 | 73.30117 | 38791 ft | 478 kts | 86° |
| 2026-04-23 07:11 | 31.37670 | 73.37848 | 38792 ft | 478 kts | 84° |
| 2026-04-23 07:12 | 31.38901 | 73.49407 | 38791 ft | 478 kts | 85° |
| 2026-04-23 07:12 | 31.39703 | 73.57123 | 38793 ft | 478 kts | 85° |
| 2026-04-23 07:13 | 31.40501 | 73.64855 | 38790 ft | 478 kts | 85° |
| 2026-04-23 07:13 | 31.41289 | 73.72526 | 38789 ft | 477 kts | 85° |
| 2026-04-23 07:14 | 31.42075 | 73.80246 | 38791 ft | 477 kts | 85° |
| 2026-04-23 07:14 | 31.42855 | 73.87964 | 38791 ft | 477 kts | 85° |
| 2026-04-23 07:15 | 31.43633 | 73.95707 | 38788 ft | 477 kts | 85° |
| 2026-04-23 07:15 | 31.43852 | 74.03336 | 38789 ft | 475 kts | 98° |
| 2026-04-23 07:16 | 31.42566 | 74.10905 | 38792 ft | 473 kts | 105° |
| 2026-04-23 07:16 | 31.41120 | 74.18424 | 38788 ft | 473 kts | 105° |
| 2026-04-23 07:17 | 31.39699 | 74.25952 | 38786 ft | 473 kts | 104° |
| 2026-04-23 07:17 | 31.38284 | 74.33472 | 38787 ft | 473 kts | 104° |
| 2026-04-23 07:18 | 31.37025 | 74.41045 | 38786 ft | 475 kts | 103° |
| 2026-04-23 07:18 | 31.35868 | 74.47332 | 38788 ft | 475 kts | 104° |
| 2026-04-23 07:19 | 31.34314 | 74.56133 | 38787 ft | 475 kts | 102° |
| 2026-04-23 07:19 | 31.33149 | 74.62402 | 38785 ft | 474 kts | 106° |
| 2026-04-23 07:20 | 31.31396 | 74.69837 | 38781 ft | 474 kts | 108° |
| 2026-04-23 07:20 | 31.29549 | 74.77225 | 38784 ft | 474 kts | 108° |
| 2026-04-23 07:21 | 31.27702 | 74.84624 | 38787 ft | 474 kts | 108° |
| 2026-04-23 07:21 | 31.25854 | 74.92027 | 38781 ft | 474 kts | 108° |
| 2026-04-23 07:22 | 31.24003 | 74.99422 | 38776 ft | 474 kts | 108° |
| 2026-04-23 07:22 | 31.22151 | 75.06801 | 38785 ft | 474 kts | 108° |
| 2026-04-23 07:23 | 31.20300 | 75.14157 | 38772 ft | 474 kts | 108° |
| 2026-04-23 07:23 | 31.18456 | 75.21574 | 38776 ft | 476 kts | 106° |
| 2026-04-23 07:24 | 31.16887 | 75.29076 | 38777 ft | 475 kts | 110° |
| 2026-04-23 07:24 | 31.14716 | 75.36356 | 38783 ft | 475 kts | 110° |
| 2026-04-23 07:25 | 31.12752 | 75.43737 | 38775 ft | 475 kts | 108° |
| 2026-04-23 07:25 | 31.10688 | 75.51046 | 38784 ft | 474 kts | 112° |
| 2026-04-23 07:26 | 31.08322 | 75.58177 | 38780 ft | 474 kts | 112° |
| 2026-04-23 07:26 | 31.05935 | 75.65343 | 38796 ft | 474 kts | 112° |
| 2026-04-23 07:27 | 31.03534 | 75.72503 | 38786 ft | 474 kts | 113° |
| 2026-04-23 07:27 | 31.01132 | 75.79671 | 38796 ft | 474 kts | 112° |
| 2026-04-23 07:28 | 30.98746 | 75.86811 | 38787 ft | 473 kts | 112° |
| 2026-04-23 07:28 | 30.96347 | 75.93958 | 38790 ft | 473 kts | 112° |
| 2026-04-23 07:29 | 30.93938 | 76.01116 | 38790 ft | 473 kts | 112° |
| 2026-04-23 07:29 | 30.91534 | 76.08255 | 38815 ft | 473 kts | 112° |
| 2026-04-23 07:30 | 30.89125 | 76.15404 | 38810 ft | 473 kts | 112° |
| 2026-04-23 07:30 | 30.86717 | 76.22521 | 38813 ft | 472 kts | 112° |
| 2026-04-23 07:31 | 30.84300 | 76.29638 | 38808 ft | 472 kts | 112° |
| 2026-04-23 07:31 | 30.81902 | 76.36699 | 38804 ft | 473 kts | 112° |
| 2026-04-23 07:32 | 30.79475 | 76.43822 | 38795 ft | 473 kts | 112° |
| 2026-04-23 07:32 | 30.77047 | 76.50927 | 38810 ft | 473 kts | 112° |
| 2026-04-23 07:33 | 30.74615 | 76.58033 | 38820 ft | 472 kts | 112° |
| 2026-04-23 07:33 | 30.72189 | 76.65094 | 38816 ft | 472 kts | 112° |
| 2026-04-23 07:34 | 30.69757 | 76.72186 | 38809 ft | 472 kts | 112° |
| 2026-04-23 07:34 | 30.66770 | 76.78946 | 38813 ft | 470 kts | 127° |
| 2026-04-23 07:35 | 30.62831 | 76.85002 | 38822 ft | 470 kts | 129° |
| 2026-04-23 07:35 | 30.58859 | 76.91038 | 38809 ft | 470 kts | 128° |
| 2026-04-23 07:36 | 30.54909 | 76.97082 | 38832 ft | 470 kts | 128° |
| 2026-04-23 07:36 | 30.50954 | 77.03127 | 38817 ft | 470 kts | 128° |
| 2026-04-23 07:37 | 30.46995 | 77.09178 | 38837 ft | 470 kts | 128° |
| 2026-04-23 07:37 | 30.43041 | 77.15207 | 38832 ft | 470 kts | 128° |
| 2026-04-23 07:38 | 30.38511 | 77.20596 | 38821 ft | 466 kts | 147° |
| 2026-04-23 07:38 | 30.32818 | 77.24134 | 38816 ft | 465 kts | 155° |
| 2026-04-23 07:39 | 30.27009 | 77.27453 | 38825 ft | 465 kts | 155° |
| 2026-04-23 07:39 | 30.21251 | 77.30803 | 38822 ft | 465 kts | 155° |
| 2026-04-23 07:40 | 30.15462 | 77.34175 | 38820 ft | 465 kts | 155° |
| 2026-04-23 07:40 | 30.09678 | 77.37540 | 38815 ft | 465 kts | 155° |
| 2026-04-23 07:41 | 30.03889 | 77.40901 | 38815 ft | 465 kts | 155° |
| 2026-04-23 07:41 | 29.98191 | 77.44461 | 38808 ft | 467 kts | 147° |
| 2026-04-23 07:42 | 29.93022 | 77.49049 | 38815 ft | 468 kts | 143° |
| 2026-04-23 07:42 | 29.87890 | 77.53689 | 38809 ft | 468 kts | 143° |
| 2026-04-23 07:43 | 29.82751 | 77.58304 | 38805 ft | 468 kts | 143° |
| 2026-04-23 07:43 | 29.77645 | 77.62879 | 38800 ft | 468 kts | 144° |
| 2026-04-23 07:44 | 29.72497 | 77.67482 | 38806 ft | 468 kts | 144° |
| 2026-04-23 07:44 | 29.67355 | 77.72075 | 38802 ft | 468 kts | 144° |
| 2026-04-23 07:45 | 29.62248 | 77.76631 | 38886 ft | 436 kts | 144° |
| 2026-04-23 07:45 | 29.60112 | 77.78544 | 38891 ft | 352 kts | 144° |
| 2026-04-23 07:45 | 29.58291 | 77.80168 | 38907 ft | 316 kts | 145° |
| 2026-04-23 07:45 | 29.56629 | 77.81648 | 38939 ft | 286 kts | 145° |
| 2026-04-23 07:46 | 29.55124 | 77.82990 | 39062 ft | 262 kts | 145° |
| 2026-04-23 07:46 | 29.53752 | 77.84211 | 39330 ft | 237 kts | 146° |
| 2026-04-23 07:46 | 29.52513 | 77.85313 | 39541 ft | 217 kts | 146° |
| 2026-04-23 07:46 | 29.51219 | 77.86436 | 38624 ft | 256 kts | 147° |
| 2026-04-23 07:47 | 29.49707 | 77.87701 | 37742 ft | 276 kts | 147° |
| 2026-04-23 07:47 | 29.48132 | 77.88992 | 37036 ft | 280 kts | 148° |
| 2026-04-23 07:47 | 29.46527 | 77.90283 | 36420 ft | 285 kts | 148° |
| 2026-04-23 07:47 | 29.44887 | 77.91578 | 35890 ft | 287 kts | 149° |
| 2026-04-23 07:48 | 29.43231 | 77.92863 | 35394 ft | 287 kts | 149° |
| 2026-04-23 07:48 | 29.41575 | 77.94128 | 34955 ft | 286 kts | 150° |
| 2026-04-23 07:48 | 29.39909 | 77.95378 | 34531 ft | 285 kts | 150° |
| 2026-04-23 07:48 | 29.38252 | 77.96603 | 34119 ft | 278 kts | 151° |
| 2026-04-23 07:49 | 29.36703 | 77.97740 | 33612 ft | 253 kts | 151° |
| 2026-04-23 07:49 | 29.35236 | 77.98805 | 32965 ft | 248 kts | 152° |
| 2026-04-23 07:49 | 29.33776 | 77.99845 | 32344 ft | 247 kts | 152° |
| 2026-04-23 07:49 | 29.32307 | 78.00870 | 31767 ft | 247 kts | 153° |
| 2026-04-23 07:50 | 29.30823 | 78.01882 | 31228 ft | 249 kts | 153° |
| 2026-04-23 07:50 | 29.29322 | 78.02884 | 30737 ft | 251 kts | 153° |
| 2026-04-23 07:50 | 29.27788 | 78.03886 | 30298 ft | 256 kts | 154° |
| 2026-04-23 07:50 | 29.26209 | 78.04895 | 29914 ft | 263 kts | 155° |
| 2026-04-23 07:51 | 29.24614 | 78.05891 | 29523 ft | 265 kts | 155° |
| 2026-04-23 07:51 | 29.22992 | 78.06883 | 29169 ft | 264 kts | 155° |
| 2026-04-23 07:51 | 29.21366 | 78.07858 | 28815 ft | 263 kts | 156° |
| 2026-04-23 07:51 | 29.19746 | 78.08809 | 28477 ft | 261 kts | 156° |
| 2026-04-23 07:52 | 29.18123 | 78.09744 | 28141 ft | 260 kts | 156° |
| 2026-04-23 07:52 | 29.16505 | 78.10655 | 27817 ft | 260 kts | 157° |
| 2026-04-23 07:52 | 29.14875 | 78.11555 | 27503 ft | 259 kts | 158° |
| 2026-04-23 07:52 | 29.13250 | 78.12432 | 27204 ft | 258 kts | 158° |
| 2026-04-23 07:53 | 29.11622 | 78.13292 | 26910 ft | 257 kts | 158° |
| 2026-04-23 07:53 | 29.09996 | 78.14132 | 26625 ft | 255 kts | 159° |
| 2026-04-23 07:53 | 29.08378 | 78.14949 | 26339 ft | 253 kts | 159° |
| 2026-04-23 07:53 | 29.06773 | 78.15743 | 26047 ft | 249 kts | 160° |
| 2026-04-23 07:54 | 29.05198 | 78.16505 | 25748 ft | 244 kts | 160° |
| 2026-04-23 07:54 | 29.03647 | 78.17238 | 25437 ft | 239 kts | 159° |
| 2026-04-23 07:54 | 29.02377 | 78.17795 | 26663 ft | 170 kts | 163° |
| 2026-04-23 07:54 | 29.01108 | 78.18314 | 26334 ft | 228 kts | 154° |
| 2026-04-23 07:55 | 28.99757 | 78.19578 | 26007 ft | 274 kts | 137° |
| 2026-04-23 07:55 | 28.98385 | 78.21223 | 26113 ft | 295 kts | 137° |
| 2026-04-23 07:55 | 28.96765 | 78.22753 | 26316 ft | 310 kts | 151° |
| 2026-04-23 07:55 | 28.94898 | 78.24124 | 26527 ft | 330 kts | 143° |
| 2026-04-23 07:56 | 28.93167 | 78.25975 | 26763 ft | 351 kts | 137° |
| 2026-04-23 07:56 | 28.91420 | 78.28016 | 26995 ft | 369 kts | 136° |
| 2026-04-23 07:56 | 28.89575 | 78.30162 | 27233 ft | 387 kts | 137° |
| 2026-04-23 07:56 | 28.87637 | 78.32379 | 27468 ft | 404 kts | 137° |
| 2026-04-23 07:57 | 28.85596 | 78.34685 | 27703 ft | 420 kts | 137° |
| 2026-04-23 07:57 | 28.83476 | 78.37070 | 27943 ft | 436 kts | 137° |
| 2026-04-23 07:57 | 28.81307 | 78.39506 | 28170 ft | 451 kts | 137° |
| 2026-04-23 07:57 | 28.79035 | 78.42053 | 28383 ft | 465 kts | 137° |
| 2026-04-23 07:58 | 28.76696 | 78.44673 | 28604 ft | 478 kts | 137° |
| 2026-04-23 07:58 | 28.74293 | 78.47367 | 28871 ft | 489 kts | 137° |
| 2026-04-23 07:58 | 28.71859 | 78.50095 | 29577 ft | 489 kts | 137° |
| 2026-04-23 07:58 | 28.69450 | 78.52789 | 30424 ft | 483 kts | 137° |
| 2026-04-23 07:59 | 28.67062 | 78.55461 | 31203 ft | 479 kts | 137° |
| 2026-04-23 07:59 | 28.64683 | 78.58117 | 31821 ft | 478 kts | 137° |
| 2026-04-23 07:59 | 28.62318 | 78.60756 | 32484 ft | 477 kts | 137° |
| 2026-04-23 07:59 | 28.59952 | 78.63394 | 33149 ft | 474 kts | 138° |
| 2026-04-23 08:00 | 28.57597 | 78.66020 | 33746 ft | 473 kts | 138° |
| 2026-04-23 08:00 | 28.55253 | 78.68633 | 34267 ft | 472 kts | 137° |
| 2026-04-23 08:00 | 28.52912 | 78.71243 | 34755 ft | 470 kts | 137° |
| 2026-04-23 08:00 | 28.50566 | 78.73854 | 35169 ft | 471 kts | 138° |
| 2026-04-23 08:01 | 28.48224 | 78.76456 | 35658 ft | 470 kts | 138° |
| 2026-04-23 08:01 | 28.45918 | 78.79022 | 36089 ft | 470 kts | 137° |
| 2026-04-23 08:01 | 28.43612 | 78.81645 | 36500 ft | 470 kts | 137° |
| 2026-04-23 08:01 | 28.41310 | 78.84288 | 36890 ft | 469 kts | 137° |
| 2026-04-23 08:02 | 28.39014 | 78.86920 | 37262 ft | 469 kts | 137° |
| 2026-04-23 08:02 | 28.36713 | 78.89549 | 37604 ft | 469 kts | 137° |
| 2026-04-23 08:02 | 28.34410 | 78.92176 | 37944 ft | 469 kts | 137° |
| 2026-04-23 08:02 | 28.32109 | 78.94797 | 38296 ft | 469 kts | 137° |
| 2026-04-23 08:03 | 28.29802 | 78.97422 | 38571 ft | 469 kts | 137° |
| 2026-04-23 08:03 | 28.27509 | 79.00032 | 38737 ft | 467 kts | 137° |
| 2026-04-23 08:03 | 28.25204 | 79.02650 | 38767 ft | 471 kts | 137° |
| 2026-04-23 08:04 | 28.20558 | 79.07922 | 38737 ft | 472 kts | 137° |
| 2026-04-23 08:04 | 28.16694 | 79.12306 | 38731 ft | 472 kts | 137° |
| 2026-04-23 08:05 | 28.12052 | 79.17567 | 38729 ft | 472 kts | 137° |
| 2026-04-23 08:05 | 28.07410 | 79.22822 | 38731 ft | 472 kts | 137° |
| 2026-04-23 08:06 | 28.02763 | 79.28075 | 38731 ft | 472 kts | 137° |
| 2026-04-23 08:06 | 27.98109 | 79.33323 | 38729 ft | 472 kts | 137° |
| 2026-04-23 08:07 | 27.93543 | 79.38474 | 38722 ft | 461 kts | 137° |
| 2026-04-23 08:07 | 27.89015 | 79.43573 | 38728 ft | 459 kts | 137° |
| 2026-04-23 08:08 | 27.84493 | 79.48660 | 38731 ft | 458 kts | 137° |
| 2026-04-23 08:08 | 27.79975 | 79.53737 | 38732 ft | 458 kts | 137° |
| 2026-04-23 08:09 | 27.75443 | 79.58822 | 38726 ft | 458 kts | 138° |
| 2026-04-23 08:09 | 27.70920 | 79.63887 | 38725 ft | 458 kts | 138° |
| 2026-04-23 08:10 | 27.66655 | 79.69254 | 38721 ft | 461 kts | 133° |
| 2026-04-23 08:10 | 27.60471 | 79.77568 | 38722 ft | 461 kts | 133° |
| 2026-04-23 08:11 | 27.56337 | 79.83101 | 38723 ft | 461 kts | 133° |
| 2026-04-23 08:11 | 27.52206 | 79.88623 | 38715 ft | 461 kts | 133° |
| 2026-04-23 08:12 | 27.48077 | 79.94134 | 38719 ft | 461 kts | 133° |
| 2026-04-23 08:12 | 27.43931 | 79.99654 | 38723 ft | 461 kts | 133° |
| 2026-04-23 08:13 | 27.39789 | 80.05166 | 38716 ft | 461 kts | 133° |
| 2026-04-23 08:13 | 27.35647 | 80.10684 | 38720 ft | 462 kts | 133° |
| 2026-04-23 08:14 | 27.31491 | 80.16204 | 38724 ft | 462 kts | 133° |
| 2026-04-23 08:14 | 27.27330 | 80.21728 | 38717 ft | 462 kts | 133° |
| 2026-04-23 08:15 | 27.23193 | 80.27206 | 38724 ft | 463 kts | 133° |
| 2026-04-23 08:15 | 27.19005 | 80.32746 | 38719 ft | 463 kts | 133° |
| 2026-04-23 08:16 | 27.14827 | 80.38267 | 38719 ft | 463 kts | 133° |
| 2026-04-23 08:16 | 27.10686 | 80.43735 | 38720 ft | 464 kts | 134° |
| 2026-04-23 08:17 | 27.06505 | 80.49243 | 38719 ft | 464 kts | 134° |
| 2026-04-23 08:17 | 27.02319 | 80.54758 | 38721 ft | 464 kts | 134° |
| 2026-04-23 08:18 | 26.98132 | 80.60262 | 38724 ft | 463 kts | 134° |
| 2026-04-23 08:18 | 26.93958 | 80.65745 | 38723 ft | 463 kts | 134° |
| 2026-04-23 08:19 | 26.89773 | 80.71232 | 38725 ft | 462 kts | 134° |
| 2026-04-23 08:19 | 26.85590 | 80.76711 | 38721 ft | 463 kts | 134° |
| 2026-04-23 08:20 | 26.81397 | 80.82200 | 38728 ft | 464 kts | 134° |
| 2026-04-23 08:20 | 26.77225 | 80.87649 | 38727 ft | 464 kts | 134° |
| 2026-04-23 08:21 | 26.73243 | 80.93418 | 38729 ft | 467 kts | 130° |
| 2026-04-23 08:21 | 26.69426 | 80.99299 | 38714 ft | 467 kts | 130° |
| 2026-04-23 08:22 | 26.65628 | 81.05147 | 38714 ft | 468 kts | 130° |
| 2026-04-23 08:22 | 26.61799 | 81.11025 | 38709 ft | 467 kts | 130° |
| 2026-04-23 08:23 | 26.57969 | 81.16889 | 38708 ft | 467 kts | 130° |
| 2026-04-23 08:23 | 26.54123 | 81.22767 | 38710 ft | 468 kts | 130° |
| 2026-04-23 08:24 | 26.50283 | 81.28629 | 38703 ft | 468 kts | 130° |
| 2026-04-23 08:24 | 26.46424 | 81.34518 | 38710 ft | 470 kts | 131° |
| 2026-04-23 08:25 | 26.42558 | 81.40409 | 38704 ft | 470 kts | 131° |
| 2026-04-23 08:25 | 26.38693 | 81.46284 | 38706 ft | 469 kts | 131° |
| 2026-04-23 08:26 | 26.34822 | 81.52157 | 38708 ft | 470 kts | 131° |
| 2026-04-23 08:26 | 26.30979 | 81.57988 | 38698 ft | 470 kts | 131° |
| 2026-04-23 08:27 | 26.27119 | 81.63844 | 38706 ft | 468 kts | 131° |
| 2026-04-23 08:27 | 26.23249 | 81.69703 | 38703 ft | 470 kts | 131° |
| 2026-04-23 08:28 | 26.19365 | 81.75565 | 38705 ft | 470 kts | 131° |
| 2026-04-23 08:28 | 26.15479 | 81.81435 | 38702 ft | 470 kts | 131° |
| 2026-04-23 08:29 | 26.11586 | 81.87300 | 38704 ft | 471 kts | 132° |
| 2026-04-23 08:29 | 26.07694 | 81.93160 | 38705 ft | 471 kts | 132° |
| 2026-04-23 08:30 | 26.03823 | 81.98979 | 38702 ft | 471 kts | 132° |
| 2026-04-23 08:30 | 25.99925 | 82.04833 | 38706 ft | 471 kts | 133° |
| 2026-04-23 08:31 | 25.96023 | 82.10693 | 38705 ft | 471 kts | 133° |
| 2026-04-23 08:31 | 25.92123 | 82.16537 | 38706 ft | 471 kts | 133° |
| 2026-04-23 08:32 | 25.88209 | 82.22393 | 38703 ft | 471 kts | 133° |
| 2026-04-23 08:32 | 25.84304 | 82.28229 | 38702 ft | 471 kts | 133° |
| 2026-04-23 08:33 | 25.80392 | 82.34068 | 38709 ft | 471 kts | 133° |
| 2026-04-23 08:33 | 25.76498 | 82.39872 | 38711 ft | 471 kts | 133° |
| 2026-04-23 08:34 | 25.72574 | 82.45716 | 38707 ft | 474 kts | 134° |
| 2026-04-23 08:34 | 25.68631 | 82.51574 | 38708 ft | 474 kts | 134° |
| 2026-04-23 08:35 | 25.64682 | 82.57433 | 38709 ft | 474 kts | 134° |
| 2026-04-23 08:35 | 25.60739 | 82.63283 | 38701 ft | 474 kts | 134° |
| 2026-04-23 08:36 | 25.56783 | 82.69137 | 38697 ft | 474 kts | 134° |
| 2026-04-23 08:36 | 25.52836 | 82.74980 | 38705 ft | 474 kts | 134° |
| 2026-04-23 08:37 | 25.48877 | 82.80826 | 38696 ft | 475 kts | 135° |
| 2026-04-23 08:37 | 25.44869 | 82.86661 | 38686 ft | 473 kts | 139° |
| 2026-04-23 08:38 | 25.40651 | 82.92169 | 38695 ft | 472 kts | 140° |
| 2026-04-23 08:38 | 25.36376 | 82.97707 | 38699 ft | 472 kts | 140° |
| 2026-04-23 08:39 | 25.32114 | 83.03246 | 38707 ft | 473 kts | 139° |
| 2026-04-23 08:39 | 25.27858 | 83.08782 | 38713 ft | 473 kts | 140° |
| 2026-04-23 08:40 | 25.23590 | 83.14322 | 38715 ft | 473 kts | 140° |
| 2026-04-23 08:40 | 25.19308 | 83.19868 | 38724 ft | 475 kts | 140° |
| 2026-04-23 08:41 | 25.15018 | 83.25415 | 38724 ft | 475 kts | 140° |
| 2026-04-23 08:41 | 25.10725 | 83.30965 | 38741 ft | 475 kts | 140° |
| 2026-04-23 08:42 | 25.06431 | 83.36511 | 38740 ft | 475 kts | 140° |
| 2026-04-23 08:42 | 25.02163 | 83.42011 | 38741 ft | 475 kts | 140° |
| 2026-04-23 08:43 | 24.97860 | 83.47549 | 38736 ft | 475 kts | 140° |
| 2026-04-23 08:43 | 24.93563 | 83.53078 | 38732 ft | 476 kts | 140° |
| 2026-04-23 08:44 | 24.89248 | 83.58621 | 38738 ft | 477 kts | 141° |
| 2026-04-23 08:44 | 24.84921 | 83.64174 | 38744 ft | 478 kts | 141° |
| 2026-04-23 08:45 | 24.80584 | 83.69733 | 38751 ft | 478 kts | 141° |
| 2026-04-23 08:45 | 24.76248 | 83.75275 | 38746 ft | 478 kts | 141° |
| 2026-04-23 08:46 | 24.71915 | 83.80819 | 38753 ft | 477 kts | 141° |
| 2026-04-23 08:46 | 24.67583 | 83.86358 | 38755 ft | 477 kts | 141° |
| 2026-04-23 08:47 | 24.63259 | 83.91872 | 38762 ft | 477 kts | 142° |
| 2026-04-23 08:47 | 24.58918 | 83.97403 | 38760 ft | 479 kts | 141° |
| 2026-04-23 08:48 | 24.54573 | 84.02942 | 38750 ft | 479 kts | 142° |
| 2026-04-23 08:48 | 24.50956 | 84.07543 | 38757 ft | 478 kts | 142° |
| 2026-04-23 08:49 | 24.46598 | 84.13067 | 38765 ft | 478 kts | 142° |
| 2026-04-23 08:49 | 24.42245 | 84.18590 | 38767 ft | 478 kts | 142° |
| 2026-04-23 08:50 | 24.37880 | 84.24120 | 38770 ft | 478 kts | 142° |
| 2026-04-23 08:50 | 24.33551 | 84.29598 | 38770 ft | 479 kts | 142° |
| 2026-04-23 08:51 | 24.29186 | 84.35123 | 38770 ft | 480 kts | 141° |
| 2026-04-23 08:51 | 24.24812 | 84.40654 | 38782 ft | 478 kts | 142° |
| 2026-04-23 08:52 | 24.20449 | 84.46152 | 38789 ft | 478 kts | 142° |
| 2026-04-23 08:52 | 24.16074 | 84.51634 | 38813 ft | 478 kts | 142° |
| 2026-04-23 08:53 | 24.11690 | 84.57110 | 38807 ft | 478 kts | 142° |
| 2026-04-23 08:53 | 24.07310 | 84.62577 | 38803 ft | 478 kts | 142° |
| 2026-04-23 08:54 | 24.02928 | 84.68042 | 38820 ft | 478 kts | 142° |
| 2026-04-23 08:54 | 23.98526 | 84.73530 | 38825 ft | 480 kts | 142° |
| 2026-04-23 08:55 | 23.94149 | 84.78975 | 38820 ft | 479 kts | 142° |
| 2026-04-23 08:55 | 23.89749 | 84.84445 | 38845 ft | 479 kts | 142° |
| 2026-04-23 08:56 | 23.85344 | 84.89913 | 38844 ft | 479 kts | 142° |
| 2026-04-23 08:56 | 23.80934 | 84.95385 | 38844 ft | 479 kts | 142° |
| 2026-04-23 08:57 | 23.76522 | 85.00855 | 38854 ft | 479 kts | 142° |
| 2026-04-23 08:57 | 23.72117 | 85.06309 | 38855 ft | 479 kts | 141° |
| 2026-04-23 08:58 | 23.67701 | 85.11763 | 38849 ft | 480 kts | 141° |
| 2026-04-23 08:58 | 23.63291 | 85.17213 | 38852 ft | 478 kts | 142° |
| 2026-04-23 08:59 | 23.58892 | 85.22640 | 38856 ft | 478 kts | 142° |
| 2026-04-23 08:59 | 23.54500 | 85.28051 | 38862 ft | 478 kts | 142° |
| 2026-04-23 09:00 | 23.50084 | 85.33485 | 38871 ft | 478 kts | 142° |
| 2026-04-23 09:00 | 23.45670 | 85.38906 | 38872 ft | 478 kts | 142° |
| 2026-04-23 09:01 | 23.41262 | 85.44323 | 38870 ft | 479 kts | 141° |
| 2026-04-23 09:01 | 23.36861 | 85.49725 | 38870 ft | 480 kts | 142° |
| 2026-04-23 09:02 | 23.32428 | 85.55161 | 38859 ft | 480 kts | 141° |
| 2026-04-23 09:02 | 23.27986 | 85.60599 | 38849 ft | 481 kts | 141° |
| 2026-04-23 09:03 | 23.23545 | 85.66030 | 38830 ft | 480 kts | 141° |
| 2026-04-23 09:03 | 23.19107 | 85.71451 | 38824 ft | 480 kts | 141° |
| 2026-04-23 09:04 | 23.14658 | 85.76880 | 38803 ft | 480 kts | 141° |
| 2026-04-23 09:04 | 23.10214 | 85.82299 | 38801 ft | 480 kts | 141° |
| 2026-04-23 09:05 | 23.05765 | 85.87722 | 38798 ft | 480 kts | 142° |
| 2026-04-23 09:05 | 23.01343 | 85.93091 | 38759 ft | 480 kts | 141° |
| 2026-04-23 09:06 | 22.96888 | 85.98505 | 38742 ft | 480 kts | 141° |
| 2026-04-23 09:06 | 22.92438 | 86.03910 | 38720 ft | 480 kts | 141° |
| 2026-04-23 09:07 | 22.87989 | 86.09302 | 38701 ft | 480 kts | 141° |
| 2026-04-23 09:07 | 22.83536 | 86.14698 | 38700 ft | 480 kts | 141° |
| 2026-04-23 09:08 | 22.79414 | 86.20429 | 38694 ft | 492 kts | 132° |
| 2026-04-23 09:08 | 22.75639 | 86.26629 | 38754 ft | 493 kts | 132° |
| 2026-04-23 09:09 | 22.71858 | 86.32815 | 38752 ft | 489 kts | 132° |
| 2026-04-23 09:09 | 22.68096 | 86.38946 | 38739 ft | 489 kts | 132° |
| 2026-04-23 09:10 | 22.62438 | 86.48144 | 38745 ft | 489 kts | 132° |
| 2026-04-23 09:11 | 22.58661 | 86.54278 | 38727 ft | 489 kts | 132° |
| 2026-04-23 09:11 | 22.54903 | 86.60370 | 38722 ft | 491 kts | 132° |
| 2026-04-23 09:12 | 22.51107 | 86.66521 | 38706 ft | 491 kts | 132° |
| 2026-04-23 09:12 | 22.47308 | 86.72665 | 38701 ft | 492 kts | 132° |
| 2026-04-23 09:13 | 22.43505 | 86.78818 | 38703 ft | 492 kts | 132° |
| 2026-04-23 09:13 | 22.39707 | 86.84952 | 38684 ft | 488 kts | 132° |
| 2026-04-23 09:14 | 22.35926 | 86.91052 | 38689 ft | 488 kts | 132° |
| 2026-04-23 09:14 | 22.32140 | 86.97147 | 38677 ft | 490 kts | 132° |
| 2026-04-23 09:15 | 22.28336 | 87.03263 | 38689 ft | 491 kts | 132° |
| 2026-04-23 09:15 | 22.24522 | 87.09389 | 38689 ft | 491 kts | 132° |
| 2026-04-23 09:16 | 22.20714 | 87.15515 | 38675 ft | 491 kts | 132° |
| 2026-04-23 09:16 | 22.16896 | 87.21641 | 38684 ft | 491 kts | 132° |
| 2026-04-23 09:17 | 22.13114 | 87.27700 | 38693 ft | 490 kts | 132° |
| 2026-04-23 09:17 | 22.09301 | 87.33801 | 38687 ft | 491 kts | 132° |
| 2026-04-23 09:18 | 22.05470 | 87.39915 | 38687 ft | 493 kts | 131° |
| 2026-04-23 09:18 | 22.01630 | 87.46041 | 38698 ft | 493 kts | 131° |
| 2026-04-23 09:19 | 21.97793 | 87.52166 | 38700 ft | 493 kts | 131° |
| 2026-04-23 09:19 | 21.93960 | 87.58270 | 38702 ft | 492 kts | 132° |
| 2026-04-23 09:20 | 21.90111 | 87.64388 | 38705 ft | 492 kts | 132° |
| 2026-04-23 09:20 | 21.86265 | 87.70499 | 38706 ft | 492 kts | 132° |
| 2026-04-23 09:21 | 21.82411 | 87.76615 | 38712 ft | 493 kts | 131° |
| 2026-04-23 09:21 | 21.78585 | 87.82684 | 38702 ft | 493 kts | 131° |
| 2026-04-23 09:22 | 21.74746 | 87.88767 | 38714 ft | 491 kts | 131° |
| 2026-04-23 09:22 | 21.70902 | 87.94846 | 38713 ft | 491 kts | 131° |
| 2026-04-23 09:23 | 21.67053 | 88.00924 | 38714 ft | 491 kts | 131° |
| 2026-04-23 09:23 | 21.63203 | 88.07007 | 38718 ft | 492 kts | 131° |
| 2026-04-23 09:24 | 21.59365 | 88.13054 | 38727 ft | 493 kts | 131° |
| 2026-04-23 09:24 | 21.55500 | 88.19141 | 38723 ft | 493 kts | 131° |
| 2026-04-23 09:25 | 21.51634 | 88.25225 | 38729 ft | 493 kts | 131° |
| 2026-04-23 09:25 | 21.47758 | 88.31305 | 38730 ft | 493 kts | 131° |
| 2026-04-23 09:26 | 21.43883 | 88.37383 | 38730 ft | 491 kts | 131° |
| 2026-04-23 09:26 | 21.40028 | 88.43439 | 38732 ft | 491 kts | 131° |
| 2026-04-23 09:27 | 21.36182 | 88.49467 | 38730 ft | 491 kts | 131° |
| 2026-04-23 09:27 | 21.32330 | 88.55520 | 38732 ft | 492 kts | 130° |
| 2026-04-23 09:28 | 21.28545 | 88.61628 | 38738 ft | 492 kts | 130° |
| 2026-04-23 09:28 | 21.24748 | 88.67744 | 38735 ft | 492 kts | 130° |
| 2026-04-23 09:29 | 21.20940 | 88.73844 | 38729 ft | 492 kts | 130° |
| 2026-04-23 09:29 | 21.17160 | 88.79900 | 38734 ft | 492 kts | 130° |
| 2026-04-23 09:30 | 21.13352 | 88.85990 | 38723 ft | 492 kts | 130° |
| 2026-04-23 09:30 | 21.09549 | 88.92057 | 38732 ft | 490 kts | 130° |
| 2026-04-23 09:31 | 21.05739 | 88.98139 | 38738 ft | 490 kts | 130° |
| 2026-04-23 09:31 | 21.01934 | 89.04210 | 38737 ft | 490 kts | 130° |
| 2026-04-23 09:32 | 20.98132 | 89.10263 | 38741 ft | 490 kts | 130° |
| 2026-04-23 09:32 | 20.94350 | 89.16286 | 38740 ft | 490 kts | 130° |
| 2026-04-23 09:33 | 20.90468 | 89.22261 | 38740 ft | 488 kts | 133° |
| 2026-04-23 09:33 | 20.86401 | 89.28079 | 38743 ft | 488 kts | 133° |
| 2026-04-23 09:34 | 20.82328 | 89.33894 | 38741 ft | 488 kts | 133° |
| 2026-04-23 09:34 | 20.78259 | 89.39699 | 38738 ft | 486 kts | 133° |
| 2026-04-23 09:35 | 20.74203 | 89.45481 | 38745 ft | 486 kts | 133° |
| 2026-04-23 09:35 | 20.70154 | 89.51259 | 38746 ft | 486 kts | 133° |
| 2026-04-23 09:36 | 20.66119 | 89.57005 | 38745 ft | 486 kts | 133° |
| 2026-04-23 09:36 | 20.62061 | 89.62775 | 38747 ft | 486 kts | 133° |
| 2026-04-23 09:37 | 20.58688 | 89.67570 | 38750 ft | 486 kts | 133° |
| 2026-04-23 09:37 | 20.54621 | 89.73340 | 38748 ft | 486 kts | 133° |
| 2026-04-23 09:38 | 20.50562 | 89.79099 | 38746 ft | 486 kts | 133° |
| 2026-04-23 09:38 | 20.46491 | 89.84861 | 38731 ft | 485 kts | 133° |
| 2026-04-23 09:39 | 20.42443 | 89.90594 | 38745 ft | 484 kts | 133° |
| 2026-04-23 09:39 | 20.38388 | 89.96327 | 38746 ft | 484 kts | 133° |
| 2026-04-23 09:40 | 20.34328 | 90.02060 | 38746 ft | 484 kts | 133° |
| 2026-04-23 09:40 | 20.30264 | 90.07799 | 38746 ft | 485 kts | 133° |
| 2026-04-23 09:41 | 20.26221 | 90.13492 | 38743 ft | 484 kts | 133° |
| 2026-04-23 09:41 | 20.22160 | 90.19214 | 38751 ft | 484 kts | 133° |
| 2026-04-23 09:42 | 20.18090 | 90.24944 | 38745 ft | 484 kts | 133° |
| 2026-04-23 09:42 | 20.14023 | 90.30662 | 38746 ft | 484 kts | 133° |
| 2026-04-23 09:43 | 20.09963 | 90.36367 | 38744 ft | 483 kts | 133° |
| 2026-04-23 09:43 | 20.05894 | 90.42073 | 38758 ft | 483 kts | 133° |
| 2026-04-23 09:44 | 20.01858 | 90.47725 | 38758 ft | 483 kts | 133° |
| 2026-04-23 09:44 | 19.97789 | 90.53423 | 38754 ft | 483 kts | 133° |
| 2026-04-23 09:45 | 19.93725 | 90.59110 | 38759 ft | 483 kts | 133° |
| 2026-04-23 09:45 | 19.89654 | 90.64783 | 38761 ft | 483 kts | 133° |
| 2026-04-23 09:46 | 19.85580 | 90.70481 | 38745 ft | 483 kts | 133° |
| 2026-04-23 09:46 | 19.81508 | 90.76158 | 38757 ft | 483 kts | 133° |
| 2026-04-23 09:47 | 19.77444 | 90.81825 | 38747 ft | 479 kts | 132° |
| 2026-04-23 09:47 | 19.73413 | 90.87439 | 38754 ft | 478 kts | 132° |
| 2026-04-23 09:48 | 19.69378 | 90.93046 | 38755 ft | 478 kts | 132° |
| 2026-04-23 09:48 | 19.65368 | 90.98617 | 38755 ft | 478 kts | 132° |
| 2026-04-23 09:49 | 19.61327 | 91.04229 | 38758 ft | 478 kts | 133° |
| 2026-04-23 09:49 | 19.57279 | 91.09826 | 38756 ft | 478 kts | 133° |
| 2026-04-23 09:50 | 19.53238 | 91.15421 | 38752 ft | 478 kts | 132° |
| 2026-04-23 09:50 | 19.49216 | 91.21017 | 38757 ft | 477 kts | 132° |
| 2026-04-23 09:51 | 19.45175 | 91.26601 | 38735 ft | 477 kts | 132° |
| 2026-04-23 09:51 | 19.41174 | 91.32127 | 38753 ft | 475 kts | 132° |
| 2026-04-23 09:52 | 19.37153 | 91.37681 | 38758 ft | 475 kts | 132° |
| 2026-04-23 09:52 | 19.33121 | 91.43234 | 38760 ft | 475 kts | 132° |
| 2026-04-23 09:53 | 19.29095 | 91.48785 | 38755 ft | 475 kts | 132° |
| 2026-04-23 09:53 | 19.25072 | 91.54328 | 38753 ft | 475 kts | 132° |
| 2026-04-23 09:54 | 19.21042 | 91.59870 | 38753 ft | 475 kts | 132° |
| 2026-04-23 09:54 | 19.17011 | 91.65404 | 38758 ft | 475 kts | 132° |
| 2026-04-23 09:55 | 19.12973 | 91.70949 | 38752 ft | 475 kts | 133° |
| 2026-04-23 09:55 | 19.08948 | 91.76474 | 38747 ft | 473 kts | 133° |
| 2026-04-23 09:56 | 19.04920 | 91.81994 | 38758 ft | 473 kts | 133° |
| 2026-04-23 09:56 | 19.00900 | 91.87505 | 38754 ft | 473 kts | 133° |
| 2026-04-23 09:57 | 18.96888 | 91.92991 | 38754 ft | 474 kts | 133° |
| 2026-04-23 09:57 | 18.92859 | 91.98498 | 38755 ft | 474 kts | 133° |
| 2026-04-23 09:58 | 18.88803 | 92.03991 | 38755 ft | 474 kts | 133° |
| 2026-04-23 09:58 | 18.84704 | 92.09460 | 38755 ft | 475 kts | 133° |
| 2026-04-23 09:59 | 18.80612 | 92.14937 | 38751 ft | 475 kts | 133° |
| 2026-04-23 09:59 | 18.76519 | 92.20409 | 38752 ft | 475 kts | 133° |
| 2026-04-23 10:00 | 18.72417 | 92.25886 | 38752 ft | 475 kts | 133° |
| 2026-04-23 10:00 | 18.68349 | 92.31325 | 38755 ft | 476 kts | 133° |
| 2026-04-23 10:01 | 18.64243 | 92.36811 | 38755 ft | 476 kts | 133° |
| 2026-04-23 10:01 | 18.60133 | 92.42294 | 38752 ft | 476 kts | 133° |
| 2026-04-23 10:02 | 18.56015 | 92.47773 | 38752 ft | 476 kts | 133° |
| 2026-04-23 10:02 | 18.51904 | 92.53242 | 38752 ft | 476 kts | 133° |
| 2026-04-23 10:03 | 18.47798 | 92.58709 | 38752 ft | 476 kts | 133° |
| 2026-04-23 10:03 | 18.43688 | 92.64174 | 38748 ft | 476 kts | 133° |
| 2026-04-23 10:04 | 18.39566 | 92.69641 | 38748 ft | 476 kts | 133° |
| 2026-04-23 10:04 | 18.35444 | 92.75109 | 38750 ft | 476 kts | 133° |
| 2026-04-23 10:05 | 18.31349 | 92.80536 | 38750 ft | 476 kts | 133° |
| 2026-04-23 10:05 | 18.27227 | 92.86000 | 38752 ft | 476 kts | 133° |
| 2026-04-23 10:06 | 18.23097 | 92.91463 | 38749 ft | 476 kts | 133° |
| 2026-04-23 10:06 | 18.18976 | 92.96911 | 38749 ft | 476 kts | 133° |
| 2026-04-23 10:07 | 18.14848 | 93.02361 | 38749 ft | 476 kts | 133° |
| 2026-04-23 10:07 | 18.10715 | 93.07807 | 38752 ft | 476 kts | 133° |
| 2026-04-23 10:08 | 18.06584 | 93.13254 | 38752 ft | 476 kts | 133° |
| 2026-04-23 10:08 | 18.02458 | 93.18704 | 38751 ft | 475 kts | 133° |
| 2026-04-23 10:09 | 17.96280 | 93.26831 | 38753 ft | 475 kts | 133° |
| 2026-04-23 10:09 | 17.92185 | 93.32217 | 38752 ft | 475 kts | 133° |
| 2026-04-23 10:10 | 17.88065 | 93.37630 | 38749 ft | 475 kts | 133° |
| 2026-04-23 10:10 | 17.83937 | 93.43044 | 38751 ft | 475 kts | 133° |
| 2026-04-23 10:11 | 17.79802 | 93.48473 | 38752 ft | 475 kts | 133° |
| 2026-04-23 10:11 | 17.75675 | 93.53879 | 38746 ft | 475 kts | 133° |
| 2026-04-23 10:12 | 17.71554 | 93.59280 | 38746 ft | 475 kts | 133° |
| 2026-04-23 10:12 | 17.67433 | 93.64674 | 38747 ft | 471 kts | 133° |
| 2026-04-23 10:13 | 17.63326 | 93.70040 | 38749 ft | 472 kts | 133° |
| 2026-04-23 10:13 | 17.59242 | 93.75368 | 38749 ft | 472 kts | 133° |
| 2026-04-23 10:14 | 17.55133 | 93.80731 | 38754 ft | 472 kts | 133° |
| 2026-04-23 10:14 | 17.51013 | 93.86107 | 38749 ft | 472 kts | 133° |
| 2026-04-23 10:15 | 17.46906 | 93.91460 | 38751 ft | 471 kts | 133° |
| 2026-04-23 10:15 | 17.42795 | 93.96811 | 38747 ft | 471 kts | 133° |
| 2026-04-23 10:16 | 17.38673 | 94.02172 | 38749 ft | 471 kts | 133° |
| 2026-04-23 10:16 | 17.34580 | 94.07489 | 38741 ft | 471 kts | 133° |
| 2026-04-23 10:17 | 17.30486 | 94.12815 | 38746 ft | 470 kts | 133° |
| 2026-04-23 10:17 | 17.26382 | 94.18140 | 38749 ft | 470 kts | 133° |
| 2026-04-23 10:18 | 17.22275 | 94.23461 | 38749 ft | 470 kts | 133° |
| 2026-04-23 10:18 | 17.18162 | 94.28798 | 38749 ft | 470 kts | 133° |
| 2026-04-23 10:19 | 17.14074 | 94.34089 | 38749 ft | 470 kts | 133° |
| 2026-04-23 10:19 | 17.09958 | 94.39414 | 38748 ft | 470 kts | 133° |
| 2026-04-23 10:20 | 17.05842 | 94.44735 | 38752 ft | 470 kts | 133° |
| 2026-04-23 10:20 | 17.01729 | 94.50047 | 38753 ft | 470 kts | 133° |
| 2026-04-23 10:21 | 16.97611 | 94.55356 | 38746 ft | 467 kts | 132° |
| 2026-04-23 10:21 | 16.93544 | 94.60597 | 38741 ft | 467 kts | 132° |
| 2026-04-23 10:22 | 16.89460 | 94.65861 | 38744 ft | 467 kts | 132° |
| 2026-04-23 10:22 | 16.85369 | 94.71128 | 38741 ft | 467 kts | 132° |
| 2026-04-23 10:23 | 16.81319 | 94.76420 | 38729 ft | 468 kts | 128° |
| 2026-04-23 10:23 | 16.78602 | 94.81402 | 38737 ft | 471 kts | 119° |
| 2026-04-23 10:24 | 16.75668 | 94.87463 | 38734 ft | 471 kts | 119° |
| 2026-04-23 10:24 | 16.72673 | 94.93598 | 38724 ft | 471 kts | 120° |
| 2026-04-23 10:25 | 16.69701 | 94.99629 | 38719 ft | 471 kts | 119° |
| 2026-04-23 10:25 | 16.66702 | 95.05715 | 38711 ft | 471 kts | 119° |
| 2026-04-23 10:26 | 16.63713 | 95.11784 | 38710 ft | 471 kts | 119° |
| 2026-04-23 10:26 | 16.60724 | 95.17834 | 38710 ft | 468 kts | 119° |
| 2026-04-23 10:27 | 16.57736 | 95.23868 | 38707 ft | 468 kts | 119° |
| 2026-04-23 10:27 | 16.54753 | 95.29913 | 38705 ft | 468 kts | 119° |
| 2026-04-23 10:28 | 16.51773 | 95.35938 | 38698 ft | 467 kts | 119° |
| 2026-04-23 10:28 | 16.48793 | 95.41956 | 38699 ft | 467 kts | 119° |
| 2026-04-23 10:29 | 16.45828 | 95.47928 | 38699 ft | 467 kts | 119° |
| 2026-04-23 10:29 | 16.42843 | 95.53938 | 38695 ft | 467 kts | 119° |
| 2026-04-23 10:30 | 16.39855 | 95.59956 | 38704 ft | 467 kts | 119° |
| 2026-04-23 10:30 | 16.36864 | 95.65972 | 38708 ft | 467 kts | 119° |
| 2026-04-23 10:31 | 16.33875 | 95.71983 | 38705 ft | 467 kts | 119° |
| 2026-04-23 10:31 | 16.30896 | 95.77955 | 38705 ft | 464 kts | 119° |
| 2026-04-23 10:32 | 16.27943 | 95.83887 | 38710 ft | 465 kts | 119° |
| 2026-04-23 10:32 | 16.24949 | 95.89884 | 38720 ft | 461 kts | 119° |
| 2026-04-23 10:33 | 16.22015 | 95.95758 | 38722 ft | 460 kts | 119° |
| 2026-04-23 10:33 | 16.19052 | 96.01680 | 38723 ft | 460 kts | 119° |
| 2026-04-23 10:34 | 16.16101 | 96.07589 | 38722 ft | 461 kts | 119° |
| 2026-04-23 10:34 | 16.13144 | 96.13500 | 38725 ft | 459 kts | 119° |
| 2026-04-23 10:35 | 16.10192 | 96.19392 | 38725 ft | 459 kts | 119° |
| 2026-04-23 10:35 | 16.07243 | 96.25268 | 38726 ft | 458 kts | 119° |
| 2026-04-23 10:36 | 16.04291 | 96.31145 | 38729 ft | 458 kts | 119° |
| 2026-04-23 10:36 | 16.01338 | 96.37029 | 38729 ft | 458 kts | 119° |
| 2026-04-23 10:37 | 15.98386 | 96.42897 | 38729 ft | 458 kts | 119° |
| 2026-04-23 10:37 | 15.95446 | 96.48740 | 38731 ft | 458 kts | 119° |
| 2026-04-23 10:38 | 15.92490 | 96.54609 | 38731 ft | 458 kts | 119° |
| 2026-04-23 10:38 | 15.89535 | 96.60483 | 38731 ft | 458 kts | 119° |
| 2026-04-23 10:39 | 15.86582 | 96.66330 | 38730 ft | 456 kts | 119° |
| 2026-04-23 10:39 | 15.83636 | 96.72163 | 38731 ft | 456 kts | 119° |
| 2026-04-23 10:40 | 15.80690 | 96.78002 | 38736 ft | 456 kts | 119° |
| 2026-04-23 10:40 | 15.77764 | 96.83790 | 38736 ft | 456 kts | 119° |
| 2026-04-23 10:41 | 15.74815 | 96.89613 | 38737 ft | 456 kts | 119° |
| 2026-04-23 10:41 | 15.71857 | 96.95448 | 38737 ft | 456 kts | 119° |
| 2026-04-23 10:42 | 15.68907 | 97.01269 | 38736 ft | 456 kts | 119° |
| 2026-04-23 10:42 | 15.65957 | 97.07086 | 38737 ft | 456 kts | 119° |
| 2026-04-23 10:43 | 15.62995 | 97.12916 | 38741 ft | 456 kts | 119° |
| 2026-04-23 10:43 | 15.60063 | 97.18693 | 38734 ft | 456 kts | 119° |
| 2026-04-23 10:44 | 15.57083 | 97.24548 | 38733 ft | 456 kts | 119° |
| 2026-04-23 10:44 | 15.54142 | 97.30329 | 38734 ft | 456 kts | 120° |
| 2026-04-23 10:45 | 15.51174 | 97.36150 | 38734 ft | 456 kts | 119° |
| 2026-04-23 10:45 | 15.48221 | 97.41947 | 38737 ft | 454 kts | 119° |
| 2026-04-23 10:46 | 15.45271 | 97.47731 | 38735 ft | 454 kts | 119° |
| 2026-04-23 10:46 | 15.42394 | 97.53568 | 38735 ft | 455 kts | 118° |
| 2026-04-23 10:47 | 15.39564 | 97.59455 | 38731 ft | 456 kts | 118° |
| 2026-04-23 10:47 | 15.36736 | 97.65317 | 38741 ft | 454 kts | 118° |
| 2026-04-23 10:48 | 15.33931 | 97.71112 | 38740 ft | 454 kts | 118° |
| 2026-04-23 10:48 | 15.31103 | 97.76955 | 38744 ft | 454 kts | 118° |
| 2026-04-23 10:49 | 15.28267 | 97.82818 | 38750 ft | 454 kts | 117° |
| 2026-04-23 10:49 | 15.25435 | 97.88662 | 38745 ft | 454 kts | 118° |
| 2026-04-23 10:50 | 15.22599 | 97.94515 | 38740 ft | 453 kts | 117° |
| 2026-04-23 10:50 | 15.19770 | 98.00346 | 38744 ft | 453 kts | 117° |
| 2026-04-23 10:51 | 15.16950 | 98.06161 | 38744 ft | 452 kts | 118° |
| 2026-04-23 10:51 | 15.14124 | 98.11974 | 38756 ft | 452 kts | 118° |
| 2026-04-23 10:52 | 15.11300 | 98.17782 | 38746 ft | 452 kts | 118° |
| 2026-04-23 10:52 | 15.08465 | 98.23589 | 38758 ft | 452 kts | 118° |
| 2026-04-23 10:53 | 15.05584 | 98.29372 | 38756 ft | 452 kts | 118° |
| 2026-04-23 10:53 | 15.02704 | 98.35152 | 38752 ft | 451 kts | 118° |
| 2026-04-23 10:54 | 14.99863 | 98.40860 | 38755 ft | 450 kts | 118° |
| 2026-04-23 10:54 | 14.96996 | 98.46613 | 38766 ft | 450 kts | 118° |
| 2026-04-23 10:55 | 14.94130 | 98.52360 | 38755 ft | 449 kts | 118° |
| 2026-04-23 10:55 | 14.91262 | 98.58110 | 38752 ft | 449 kts | 118° |
| 2026-04-23 10:56 | 14.88395 | 98.63853 | 38757 ft | 450 kts | 118° |
| 2026-04-23 10:56 | 14.85542 | 98.69562 | 38760 ft | 450 kts | 119° |
| 2026-04-23 10:57 | 14.82664 | 98.75314 | 38763 ft | 452 kts | 118° |
| 2026-04-23 10:57 | 14.79775 | 98.81085 | 38747 ft | 453 kts | 118° |
| 2026-04-23 10:58 | 14.76878 | 98.86869 | 38753 ft | 452 kts | 118° |
| 2026-04-23 10:58 | 14.74002 | 98.92605 | 38735 ft | 446 kts | 118° |
| 2026-04-23 10:59 | 14.71150 | 98.98295 | 38736 ft | 447 kts | 118° |
| 2026-04-23 10:59 | 14.68330 | 99.03906 | 38739 ft | 447 kts | 118° |
| 2026-04-23 11:00 | 14.65470 | 99.09598 | 38728 ft | 445 kts | 117° |
| 2026-04-23 11:00 | 14.62600 | 99.15311 | 38743 ft | 441 kts | 117° |
| 2026-04-23 11:01 | 14.59737 | 99.21002 | 38738 ft | 449 kts | 117° |
| 2026-04-23 11:01 | 14.56856 | 99.26720 | 38719 ft | 449 kts | 117° |
| 2026-04-23 11:02 | 14.53984 | 99.32417 | 38718 ft | 449 kts | 117° |
| 2026-04-23 11:02 | 14.51098 | 99.38142 | 38713 ft | 448 kts | 117° |
| 2026-04-23 11:03 | 14.49687 | 99.40945 | 38279 ft | 448 kts | 118° |
| 2026-04-23 11:03 | 14.48511 | 99.43273 | 37184 ft | 457 kts | 118° |
| 2026-04-23 11:03 | 14.47019 | 99.46225 | 35748 ft | 471 kts | 118° |
| 2026-04-23 11:03 | 14.45485 | 99.49263 | 34384 ft | 483 kts | 118° |
| 2026-04-23 11:04 | 14.44207 | 99.52492 | 33134 ft | 489 kts | 107° |
| 2026-04-23 11:04 | 14.43595 | 99.55955 | 31789 ft | 493 kts | 95° |
| 2026-04-23 11:04 | 14.43371 | 99.59489 | 30655 ft | 494 kts | 92° |
| 2026-04-23 11:04 | 14.43182 | 99.63003 | 29838 ft | 489 kts | 92° |
| 2026-04-23 11:05 | 14.43050 | 99.65321 | 29418 ft | 480 kts | 92° |
| 2026-04-23 11:05 | 14.42846 | 99.68719 | 28508 ft | 473 kts | 92° |
| 2026-04-23 11:05 | 14.42635 | 99.72120 | 27384 ft | 474 kts | 93° |
| 2026-04-23 11:05 | 14.42419 | 99.75495 | 26541 ft | 468 kts | 93° |
| 2026-04-23 11:06 | 14.42027 | 99.81643 | 25090 ft | 455 kts | 93° |
| 2026-04-23 11:06 | 14.41818 | 99.84878 | 24247 ft | 450 kts | 93° |
| 2026-04-23 11:06 | 14.41610 | 99.88083 | 23487 ft | 444 kts | 93° |
| 2026-04-23 11:07 | 14.41409 | 99.91205 | 22678 ft | 437 kts | 93° |
| 2026-04-23 11:07 | 14.41205 | 99.94347 | 21780 ft | 432 kts | 93° |
| 2026-04-23 11:07 | 14.41009 | 99.97385 | 21023 ft | 425 kts | 92° |
| 2026-04-23 11:07 | 14.40814 | 100.00410 | 20200 ft | 420 kts | 92° |
| 2026-04-23 11:08 | 14.40621 | 100.03406 | 19418 ft | 415 kts | 92° |
| 2026-04-23 11:08 | 14.40358 | 100.06342 | 18683 ft | 410 kts | 98° |
| 2026-04-23 11:08 | 14.39695 | 100.09187 | 17985 ft | 405 kts | 103° |
| 2026-04-23 11:08 | 14.38977 | 100.11990 | 17180 ft | 401 kts | 103° |
| 2026-04-23 11:09 | 14.38286 | 100.14703 | 16717 ft | 388 kts | 103° |
| 2026-04-23 11:09 | 14.37621 | 100.17339 | 16403 ft | 373 kts | 103° |
| 2026-04-23 11:09 | 14.36983 | 100.19895 | 16132 ft | 364 kts | 103° |
| 2026-04-23 11:09 | 14.36359 | 100.22397 | 15885 ft | 356 kts | 103° |
| 2026-04-23 11:10 | 14.35746 | 100.24844 | 15640 ft | 349 kts | 103° |
| 2026-04-23 11:10 | 14.35143 | 100.27250 | 15400 ft | 343 kts | 103° |
| 2026-04-23 11:10 | 14.34555 | 100.29610 | 15162 ft | 340 kts | 103° |
| 2026-04-23 11:10 | 14.33973 | 100.31939 | 14928 ft | 338 kts | 103° |
| 2026-04-23 11:11 | 14.33379 | 100.34314 | 14686 ft | 337 kts | 103° |
| 2026-04-23 11:11 | 14.32801 | 100.36620 | 14453 ft | 336 kts | 104° |
| 2026-04-23 11:11 | 14.32230 | 100.38895 | 14223 ft | 335 kts | 104° |
| 2026-04-23 11:11 | 14.31650 | 100.41209 | 13989 ft | 333 kts | 104° |
| 2026-04-23 11:12 | 14.31072 | 100.43504 | 13757 ft | 325 kts | 104° |
| 2026-04-23 11:12 | 14.30514 | 100.45723 | 13532 ft | 314 kts | 104° |
| 2026-04-23 11:12 | 14.29971 | 100.47886 | 13280 ft | 309 kts | 104° |
| 2026-04-23 11:12 | 14.29467 | 100.49900 | 13042 ft | 305 kts | 104° |
| 2026-04-23 11:13 | 14.28934 | 100.52016 | 12730 ft | 310 kts | 104° |
| 2026-04-23 11:13 | 14.28387 | 100.54185 | 12471 ft | 312 kts | 104° |
| 2026-04-23 11:13 | 14.27842 | 100.56349 | 12240 ft | 311 kts | 104° |
| 2026-04-23 11:13 | 14.27301 | 100.58502 | 12022 ft | 311 kts | 104° |
| 2026-04-23 11:14 | 14.26759 | 100.60660 | 11809 ft | 310 kts | 104° |
| 2026-04-23 11:14 | 14.26171 | 100.62795 | 11602 ft | 309 kts | 111° |
| 2026-04-23 11:14 | 14.25047 | 100.64648 | 11372 ft | 306 kts | 135° |
| 2026-04-23 11:14 | 14.23296 | 100.65819 | 11155 ft | 305 kts | 161° |
| 2026-04-23 11:15 | 14.21221 | 100.66124 | 10943 ft | 302 kts | 185° |
| 2026-04-23 11:15 | 14.19175 | 100.65691 | 10745 ft | 300 kts | 196° |
| 2026-04-23 11:15 | 14.17168 | 100.65112 | 10540 ft | 299 kts | 196° |
| 2026-04-23 11:15 | 14.15166 | 100.64541 | 10334 ft | 298 kts | 195° |
| 2026-04-23 11:16 | 14.13169 | 100.63991 | 10123 ft | 296 kts | 195° |
| 2026-04-23 11:16 | 14.11179 | 100.63454 | 9923 ft | 294 kts | 195° |
| 2026-04-23 11:16 | 14.09193 | 100.62926 | 9741 ft | 295 kts | 195° |
| 2026-04-23 11:16 | 14.07205 | 100.62404 | 9604 ft | 293 kts | 195° |
| 2026-04-23 11:17 | 14.05230 | 100.61884 | 9471 ft | 293 kts | 195° |
| 2026-04-23 11:17 | 14.03271 | 100.61369 | 9312 ft | 286 kts | 195° |
| 2026-04-23 11:17 | 14.01353 | 100.61089 | 9125 ft | 273 kts | 176° |
| 2026-04-23 11:17 | 13.99617 | 100.61719 | 8963 ft | 263 kts | 146° |
| 2026-04-23 11:18 | 13.98475 | 100.63123 | 8593 ft | 262 kts | 115° |
| 2026-04-23 11:18 | 13.97954 | 100.64944 | 8185 ft | 262 kts | 104° |
| 2026-04-23 11:18 | 13.97553 | 100.66758 | 7877 ft | 258 kts | 104° |
| 2026-04-23 11:18 | 13.97143 | 100.68526 | 7492 ft | 257 kts | 104° |
| 2026-04-23 11:19 | 13.96903 | 100.70361 | 7114 ft | 257 kts | 85° |
| 2026-04-23 11:19 | 13.97537 | 100.72001 | 6902 ft | 249 kts | 53° |
| 2026-04-23 11:19 | 13.98555 | 100.73415 | 6769 ft | 236 kts | 67° |
| 2026-04-23 11:19 | 13.98765 | 100.74987 | 6574 ft | 223 kts | 103° |
| 2026-04-23 11:20 | 13.98063 | 100.76360 | 6151 ft | 218 kts | 141° |
| 2026-04-23 11:20 | 13.96720 | 100.76959 | 5774 ft | 215 kts | 178° |
| 2026-04-23 11:20 | 13.95294 | 100.76566 | 5435 ft | 215 kts | 209° |
| 2026-04-23 11:20 | 13.94059 | 100.75741 | 5032 ft | 208 kts | 213° |
| 2026-04-23 11:21 | 13.92763 | 100.75118 | 4523 ft | 211 kts | 191° |
| 2026-04-23 11:21 | 13.91324 | 100.75255 | 3972 ft | 208 kts | 161° |
| 2026-04-23 11:21 | 13.90111 | 100.76031 | 3455 ft | 204 kts | 145° |
| 2026-04-23 11:21 | 13.89072 | 100.76849 | 2991 ft | 199 kts | 144° |
| 2026-04-23 11:22 | 13.88002 | 100.77693 | 2466 ft | 189 kts | 144° |
| 2026-04-23 11:22 | 13.87003 | 100.78508 | 2118 ft | 171 kts | 144° |
| 2026-04-23 11:22 | 13.86330 | 100.79072 | 2031 ft | 157 kts | 144° |
| 2026-04-23 11:22 | 13.85508 | 100.79763 | 2006 ft | 158 kts | 144° |
| 2026-04-23 11:23 | 13.84698 | 100.80404 | 1992 ft | 156 kts | 153° |
| 2026-04-23 11:23 | 13.83652 | 100.80524 | 1988 ft | 153 kts | 190° |
| 2026-04-23 11:23 | 13.82700 | 100.80070 | 1986 ft | 141 kts | 204° |
| 2026-04-23 11:23 | 13.81923 | 100.79704 | 1959 ft | 116 kts | 197° |
| 2026-04-23 11:24 | 13.81177 | 100.79404 | 1968 ft | 115 kts | 198° |
| 2026-04-23 11:24 | 13.80427 | 100.79103 | 1990 ft | 116 kts | 197° |
| 2026-04-23 11:24 | 13.79666 | 100.78889 | 1992 ft | 111 kts | 194° |
| 2026-04-23 11:24 | 13.78937 | 100.78693 | 1895 ft | 109 kts | 193° |
| 2026-04-23 11:25 | 13.78189 | 100.78494 | 1761 ft | 109 kts | 194° |
| 2026-04-23 11:25 | 13.77465 | 100.78302 | 1624 ft | 108 kts | 194° |
| 2026-04-23 11:25 | 13.76970 | 100.78171 | 1531 ft | 109 kts | 193° |
| 2026-04-23 11:25 | 13.76232 | 100.77977 | 1379 ft | 114 kts | 192° |
| 2026-04-23 11:26 | 13.75462 | 100.77773 | 1240 ft | 112 kts | 192° |
| 2026-04-23 11:26 | 13.74714 | 100.77575 | 1092 ft | 113 kts | 192° |
| 2026-04-23 11:26 | 13.73924 | 100.77366 | 947 ft | 118 kts | 195° |
| 2026-04-23 11:26 | 13.73149 | 100.77162 | 818 ft | 116 kts | 196° |
| 2026-04-23 11:27 | 13.72423 | 100.76983 | 696 ft | 113 kts | 196° |
| 2026-04-23 11:27 | 13.71721 | 100.76781 | 617 ft | 107 kts | 196° |
| 2026-04-23 11:27 | 13.71014 | 100.76585 | 479 ft | 105 kts | 193° |
| 2026-04-23 11:27 | 13.70302 | 100.76410 | 275 ft | 109 kts | 192° |
| 2026-04-23 11:28 | 13.69557 | 100.76200 | 162 ft | 110 kts | 192° |
| 2026-04-23 11:28 | 13.68816 | 100.76009 | 53 ft | 109 kts | 192° |
| 2026-04-23 11:28 | 13.68121 | 100.75829 | 21 ft | 94 kts | 192° |
| 2026-04-23 11:28 | 13.67659 | 100.75707 | 17 ft | 28 kts | 195° |
| 2026-04-23 11:29 | 13.67545 | 100.75649 | 18 ft | 22 kts | 245° |
| 2026-04-23 11:29 | 13.67516 | 100.75606 | 19 ft | 1 kts | 225° |
| 2026-04-23 11:29 | 13.67508 | 100.75581 | 19 ft | 6 kts | 285° |
| 2026-04-23 11:29 | 13.67535 | 100.75570 | 19 ft | 0 kts | 341° |
| 2026-04-23 11:32 | 13.67542 | 100.75567 | 19 ft | 3 kts | 341° |
| 2026-04-23 11:33 | 13.67572 | 100.75558 | 19 ft | 6 kts | 344° |
| 2026-04-23 11:33 | 13.67625 | 100.75542 | 19 ft | 10 kts | 344° |
| 2026-04-23 11:33 | 13.67704 | 100.75527 | 19 ft | 13 kts | 1° |
| 2026-04-23 11:33 | 13.67807 | 100.75551 | 20 ft | 17 kts | 17° |
| 2026-04-23 11:34 | 13.67928 | 100.75583 | 19 ft | 20 kts | 13° |
| 2026-04-23 11:34 | 13.68068 | 100.75618 | 19 ft | 22 kts | 15° |
| 2026-04-23 11:34 | 13.68226 | 100.75663 | 19 ft | 25 kts | 15° |
| 2026-04-23 11:34 | 13.68402 | 100.75711 | 20 ft | 27 kts | 14° |
| 2026-04-23 11:35 | 13.68594 | 100.75760 | 20 ft | 30 kts | 15° |
| 2026-04-23 11:35 | 13.68800 | 100.75818 | 20 ft | 32 kts | 15° |
| 2026-04-23 11:35 | 13.69019 | 100.75878 | 20 ft | 34 kts | 13° |
| 2026-04-23 11:35 | 13.69251 | 100.75937 | 19 ft | 35 kts | 15° |
| 2026-04-23 11:36 | 13.69354 | 100.75963 | 19 ft | 3 kts | 13° |
| 2026-04-23 11:36 | 13.69384 | 100.75970 | 19 ft | 6 kts | 13° |
| 2026-04-23 11:36 | 13.69440 | 100.75984 | 19 ft | 10 kts | 13° |
| 2026-04-23 11:36 | 13.69499 | 100.75942 | 20 ft | 13 kts | 287° |
| 2026-04-23 11:37 | 13.69526 | 100.75838 | 21 ft | 17 kts | 284° |
| 2026-04-23 11:37 | 13.69564 | 100.75734 | 20 ft | 8 kts | 329° |
| 2026-04-23 11:37 | 13.69630 | 100.75732 | 19 ft | 11 kts | 16° |
| 2026-04-23 11:37 | 13.69697 | 100.75753 | 19 ft | 10 kts | 33° |
| 2026-04-23 11:38 | 13.69690 | 100.75805 | 21 ft | 6 kts | 109° |
| 2026-04-23 11:38 | 13.69688 | 100.75816 | 19 ft | 3 kts | 102° |
| 2026-04-23 11:38 | 13.69682 | 100.75837 | 20 ft | 0 kts | 106° |
| 2026-04-23 11:38 | 13.69680 | 100.75846 | 19 ft | 0 kts | 105° |